﻿<?xml version="1.0" encoding="UTF-8"?>
<gpx xmlns="http://www.topografix.com/GPX/1/1" creator="ape@map" version="1.1" xmlns:xsi="http://www.w3.org/2001/XMLSchema-instance" xmlns:dklgpx="http://na.na.na/GPX/1/1" xsi:schemaLocation="http://www.topografix.com/GPX/1/1 http://www.topografix.com/GPX/1/1/gpx.xsd">
<metadata>
   <name>ape@map my Phone my Guide</name>
</metadata>
<trk>
   <name>Wetterkreuztrail</name>
   <trkseg>
      <trkpt lon="11.5385913849" lat="47.1308403015">
          <ele>1318</ele>
          <time>2026-05-02T07:05:49Z</time>
      </trkpt>
      <trkpt lon="11.538731575" lat="47.1308097839">
          <ele>1318</ele>
          <time>2026-05-02T07:06:27Z</time>
      </trkpt>
      <trkpt lon="11.5388994217" lat="47.1308021545">
          <ele>1318</ele>
          <time>2026-05-02T07:06:32Z</time>
      </trkpt>
      <trkpt lon="11.5390720367" lat="47.1308097839">
          <ele>1320</ele>
          <time>2026-05-02T07:06:37Z</time>
      </trkpt>
      <trkpt lon="11.5392217636" lat="47.1307907104">
          <ele>1321</ele>
          <time>2026-05-02T07:06:41Z</time>
      </trkpt>
      <trkpt lon="11.5393676758" lat="47.1307792664">
          <ele>1323</ele>
          <time>2026-05-02T07:06:45Z</time>
      </trkpt>
      <trkpt lon="11.5395336151" lat="47.1307411194">
          <ele>1325</ele>
          <time>2026-05-02T07:06:50Z</time>
      </trkpt>
      <trkpt lon="11.5397005081" lat="47.1307220459">
          <ele>1327</ele>
          <time>2026-05-02T07:06:55Z</time>
      </trkpt>
      <trkpt lon="11.5398616791" lat="47.130695343">
          <ele>1328</ele>
          <time>2026-05-02T07:07:00Z</time>
      </trkpt>
      <trkpt lon="11.5400238037" lat="47.1306724548">
          <ele>1329</ele>
          <time>2026-05-02T07:07:05Z</time>
      </trkpt>
      <trkpt lon="11.5401916504" lat="47.1306495667">
          <ele>1331</ele>
          <time>2026-05-02T07:07:10Z</time>
      </trkpt>
      <trkpt lon="11.5403470993" lat="47.1306686401">
          <ele>1331</ele>
          <time>2026-05-02T07:07:14Z</time>
      </trkpt>
      <trkpt lon="11.540476799" lat="47.1307373047">
          <ele>1332</ele>
          <time>2026-05-02T07:07:18Z</time>
      </trkpt>
      <trkpt lon="11.5405006409" lat="47.1308479309">
          <ele>1333</ele>
          <time>2026-05-02T07:07:21Z</time>
      </trkpt>
      <trkpt lon="11.540473938" lat="47.1309623718">
          <ele>1333</ele>
          <time>2026-05-02T07:07:24Z</time>
      </trkpt>
      <trkpt lon="11.5404434204" lat="47.1310844421">
          <ele>1333</ele>
          <time>2026-05-02T07:07:27Z</time>
      </trkpt>
      <trkpt lon="11.5404424667" lat="47.1312103271">
          <ele>1333</ele>
          <time>2026-05-02T07:07:30Z</time>
      </trkpt>
      <trkpt lon="11.5404815674" lat="47.1313247681">
          <ele>1333</ele>
          <time>2026-05-02T07:07:33Z</time>
      </trkpt>
      <trkpt lon="11.5405406952" lat="47.1314468384">
          <ele>1332</ele>
          <time>2026-05-02T07:07:36Z</time>
      </trkpt>
      <trkpt lon="11.540646553" lat="47.1315498352">
          <ele>1333</ele>
          <time>2026-05-02T07:07:39Z</time>
      </trkpt>
      <trkpt lon="11.540813446" lat="47.1316261292">
          <ele>1333</ele>
          <time>2026-05-02T07:07:42Z</time>
      </trkpt>
      <trkpt lon="11.5409555435" lat="47.1316604614">
          <ele>1333</ele>
          <time>2026-05-02T07:07:44Z</time>
      </trkpt>
      <trkpt lon="11.5411434174" lat="47.1316757202">
          <ele>1333</ele>
          <time>2026-05-02T07:07:47Z</time>
      </trkpt>
      <trkpt lon="11.5413017273" lat="47.1316947937">
          <ele>1334</ele>
          <time>2026-05-02T07:07:50Z</time>
      </trkpt>
      <trkpt lon="11.5414743423" lat="47.1316986084">
          <ele>1334</ele>
          <time>2026-05-02T07:07:54Z</time>
      </trkpt>
      <trkpt lon="11.5416574478" lat="47.1317100525">
          <ele>1335</ele>
          <time>2026-05-02T07:07:58Z</time>
      </trkpt>
      <trkpt lon="11.5418462753" lat="47.131729126">
          <ele>1335</ele>
          <time>2026-05-02T07:08:02Z</time>
      </trkpt>
      <trkpt lon="11.5420227051" lat="47.1317634583">
          <ele>1336</ele>
          <time>2026-05-02T07:08:06Z</time>
      </trkpt>
      <trkpt lon="11.5421915054" lat="47.131816864">
          <ele>1337</ele>
          <time>2026-05-02T07:08:10Z</time>
      </trkpt>
      <trkpt lon="11.5423517227" lat="47.1318778992">
          <ele>1338</ele>
          <time>2026-05-02T07:08:14Z</time>
      </trkpt>
      <trkpt lon="11.542517662" lat="47.1319274902">
          <ele>1339</ele>
          <time>2026-05-02T07:08:18Z</time>
      </trkpt>
      <trkpt lon="11.5426607132" lat="47.1319770813">
          <ele>1340</ele>
          <time>2026-05-02T07:08:22Z</time>
      </trkpt>
      <trkpt lon="11.5427780151" lat="47.1320381165">
          <ele>1340</ele>
          <time>2026-05-02T07:08:26Z</time>
      </trkpt>
      <trkpt lon="11.5428953171" lat="47.1321296692">
          <ele>1339</ele>
          <time>2026-05-02T07:08:31Z</time>
      </trkpt>
      <trkpt lon="11.5429944992" lat="47.1322288513">
          <ele>1339</ele>
          <time>2026-05-02T07:08:36Z</time>
      </trkpt>
      <trkpt lon="11.5430994034" lat="47.1323013306">
          <ele>1338</ele>
          <time>2026-05-02T07:08:40Z</time>
      </trkpt>
      <trkpt lon="11.5431985855" lat="47.1323852539">
          <ele>1338</ele>
          <time>2026-05-02T07:08:44Z</time>
      </trkpt>
      <trkpt lon="11.5433731079" lat="47.1324195862">
          <ele>1338</ele>
          <time>2026-05-02T07:08:48Z</time>
      </trkpt>
      <trkpt lon="11.5435266495" lat="47.1324501038">
          <ele>1340</ele>
          <time>2026-05-02T07:08:53Z</time>
      </trkpt>
      <trkpt lon="11.5435810089" lat="47.132522583">
          <ele>1348</ele>
          <time>2026-05-02T07:08:57Z</time>
      </trkpt>
      <trkpt lon="11.5436792374" lat="47.1325874329">
          <ele>1355</ele>
          <time>2026-05-02T07:09:01Z</time>
      </trkpt>
      <trkpt lon="11.5438051224" lat="47.1326408386">
          <ele>1359</ele>
          <time>2026-05-02T07:09:05Z</time>
      </trkpt>
      <trkpt lon="11.5439844131" lat="47.1326599121">
          <ele>1360</ele>
          <time>2026-05-02T07:09:10Z</time>
      </trkpt>
      <trkpt lon="11.544131279" lat="47.1326713562">
          <ele>1360</ele>
          <time>2026-05-02T07:09:14Z</time>
      </trkpt>
      <trkpt lon="11.5442972183" lat="47.1326828003">
          <ele>1361</ele>
          <time>2026-05-02T07:09:19Z</time>
      </trkpt>
      <trkpt lon="11.5444488525" lat="47.1326904297">
          <ele>1361</ele>
          <time>2026-05-02T07:09:23Z</time>
      </trkpt>
      <trkpt lon="11.5446205139" lat="47.1327133179">
          <ele>1361</ele>
          <time>2026-05-02T07:09:28Z</time>
      </trkpt>
      <trkpt lon="11.5447683334" lat="47.1327323914">
          <ele>1363</ele>
          <time>2026-05-02T07:09:33Z</time>
      </trkpt>
      <trkpt lon="11.5449132919" lat="47.1327705383">
          <ele>1364</ele>
          <time>2026-05-02T07:09:38Z</time>
      </trkpt>
      <trkpt lon="11.5450668335" lat="47.1328163147">
          <ele>1366</ele>
          <time>2026-05-02T07:09:43Z</time>
      </trkpt>
      <trkpt lon="11.5452051163" lat="47.1328697205">
          <ele>1368</ele>
          <time>2026-05-02T07:09:48Z</time>
      </trkpt>
      <trkpt lon="11.5453472137" lat="47.1329421997">
          <ele>1370</ele>
          <time>2026-05-02T07:09:53Z</time>
      </trkpt>
      <trkpt lon="11.5454549789" lat="47.133026123">
          <ele>1372</ele>
          <time>2026-05-02T07:09:58Z</time>
      </trkpt>
      <trkpt lon="11.5455465317" lat="47.1331176758">
          <ele>1374</ele>
          <time>2026-05-02T07:10:03Z</time>
      </trkpt>
      <trkpt lon="11.5455675125" lat="47.1332168579">
          <ele>1377</ele>
          <time>2026-05-02T07:10:08Z</time>
      </trkpt>
      <trkpt lon="11.5454931259" lat="47.1333122253">
          <ele>1377</ele>
          <time>2026-05-02T07:10:13Z</time>
      </trkpt>
      <trkpt lon="11.545340538" lat="47.1332969666">
          <ele>1373</ele>
          <time>2026-05-02T07:10:49Z</time>
      </trkpt>
      <trkpt lon="11.545176506" lat="47.1332550049">
          <ele>1372</ele>
          <time>2026-05-02T07:10:54Z</time>
      </trkpt>
      <trkpt lon="11.5450267792" lat="47.1332702637">
          <ele>1373</ele>
          <time>2026-05-02T07:10:59Z</time>
      </trkpt>
      <trkpt lon="11.5449104309" lat="47.1333274841">
          <ele>1376</ele>
          <time>2026-05-02T07:11:04Z</time>
      </trkpt>
      <trkpt lon="11.5448226929" lat="47.1334075928">
          <ele>1380</ele>
          <time>2026-05-02T07:11:09Z</time>
      </trkpt>
      <trkpt lon="11.5447254181" lat="47.1334991455">
          <ele>1383</ele>
          <time>2026-05-02T07:11:14Z</time>
      </trkpt>
      <trkpt lon="11.5446949005" lat="47.1335983276">
          <ele>1386</ele>
          <time>2026-05-02T07:11:19Z</time>
      </trkpt>
      <trkpt lon="11.5446805954" lat="47.1337089539">
          <ele>1387</ele>
          <time>2026-05-02T07:11:24Z</time>
      </trkpt>
      <trkpt lon="11.5446586609" lat="47.1338157654">
          <ele>1388</ele>
          <time>2026-05-02T07:11:29Z</time>
      </trkpt>
      <trkpt lon="11.544626236" lat="47.1339225769">
          <ele>1390</ele>
          <time>2026-05-02T07:11:34Z</time>
      </trkpt>
      <trkpt lon="11.5446605682" lat="47.1340293884">
          <ele>1391</ele>
          <time>2026-05-02T07:11:40Z</time>
      </trkpt>
      <trkpt lon="11.5448093414" lat="47.1340866089">
          <ele>1393</ele>
          <time>2026-05-02T07:11:46Z</time>
      </trkpt>
      <trkpt lon="11.5448522568" lat="47.134185791">
          <ele>1396</ele>
          <time>2026-05-02T07:11:51Z</time>
      </trkpt>
      <trkpt lon="11.5447397232" lat="47.1342658997">
          <ele>1397</ele>
          <time>2026-05-02T07:11:56Z</time>
      </trkpt>
      <trkpt lon="11.5445804596" lat="47.1342544556">
          <ele>1395</ele>
          <time>2026-05-02T07:12:01Z</time>
      </trkpt>
      <trkpt lon="11.5444288254" lat="47.1342391968">
          <ele>1394</ele>
          <time>2026-05-02T07:12:06Z</time>
      </trkpt>
      <trkpt lon="11.5443058014" lat="47.1343154907">
          <ele>1394</ele>
          <time>2026-05-02T07:12:12Z</time>
      </trkpt>
      <trkpt lon="11.5443048477" lat="47.1344146729">
          <ele>1395</ele>
          <time>2026-05-02T07:12:16Z</time>
      </trkpt>
      <trkpt lon="11.544336319" lat="47.1345100403">
          <ele>1397</ele>
          <time>2026-05-02T07:12:20Z</time>
      </trkpt>
      <trkpt lon="11.5443935394" lat="47.1345939636">
          <ele>1401</ele>
          <time>2026-05-02T07:12:24Z</time>
      </trkpt>
      <trkpt lon="11.5444488525" lat="47.1346893311">
          <ele>1404</ele>
          <time>2026-05-02T07:12:29Z</time>
      </trkpt>
      <trkpt lon="11.5444946289" lat="47.1347961426">
          <ele>1406</ele>
          <time>2026-05-02T07:12:34Z</time>
      </trkpt>
      <trkpt lon="11.5444869995" lat="47.1348991394">
          <ele>1407</ele>
          <time>2026-05-02T07:12:38Z</time>
      </trkpt>
      <trkpt lon="11.5444335938" lat="47.1350021362">
          <ele>1408</ele>
          <time>2026-05-02T07:12:43Z</time>
      </trkpt>
      <trkpt lon="11.5443792343" lat="47.1350975037">
          <ele>1409</ele>
          <time>2026-05-02T07:12:48Z</time>
      </trkpt>
      <trkpt lon="11.5443344116" lat="47.1352043152">
          <ele>1411</ele>
          <time>2026-05-02T07:12:54Z</time>
      </trkpt>
      <trkpt lon="11.5443105698" lat="47.135307312">
          <ele>1413</ele>
          <time>2026-05-02T07:12:59Z</time>
      </trkpt>
      <trkpt lon="11.5442752838" lat="47.1354026794">
          <ele>1416</ele>
          <time>2026-05-02T07:13:04Z</time>
      </trkpt>
      <trkpt lon="11.5442352295" lat="47.1355133057">
          <ele>1420</ele>
          <time>2026-05-02T07:13:10Z</time>
      </trkpt>
      <trkpt lon="11.5442037582" lat="47.1356315613">
          <ele>1422</ele>
          <time>2026-05-02T07:13:16Z</time>
      </trkpt>
      <trkpt lon="11.5440711975" lat="47.1357002258">
          <ele>1423</ele>
          <time>2026-05-02T07:13:21Z</time>
      </trkpt>
      <trkpt lon="11.5439395905" lat="47.1356277466">
          <ele>1423</ele>
          <time>2026-05-02T07:13:26Z</time>
      </trkpt>
      <trkpt lon="11.5438690186" lat="47.1355133057">
          <ele>1420</ele>
          <time>2026-05-02T07:13:30Z</time>
      </trkpt>
      <trkpt lon="11.5437374115" lat="47.1354675293">
          <ele>1419</ele>
          <time>2026-05-02T07:13:35Z</time>
      </trkpt>
      <trkpt lon="11.5437469482" lat="47.1355895996">
          <ele>1420</ele>
          <time>2026-05-02T07:13:39Z</time>
      </trkpt>
      <trkpt lon="11.5437803268" lat="47.1356964111">
          <ele>1421</ele>
          <time>2026-05-02T07:13:42Z</time>
      </trkpt>
      <trkpt lon="11.5438156128" lat="47.1358108521">
          <ele>1423</ele>
          <time>2026-05-02T07:13:45Z</time>
      </trkpt>
      <trkpt lon="11.5438489914" lat="47.1359138489">
          <ele>1425</ele>
          <time>2026-05-02T07:13:48Z</time>
      </trkpt>
      <trkpt lon="11.5439252853" lat="47.1360015869">
          <ele>1426</ele>
          <time>2026-05-02T07:13:52Z</time>
      </trkpt>
      <trkpt lon="11.5440635681" lat="47.136051178">
          <ele>1428</ele>
          <time>2026-05-02T07:13:57Z</time>
      </trkpt>
      <trkpt lon="11.5442180634" lat="47.1360206604">
          <ele>1429</ele>
          <time>2026-05-02T07:14:01Z</time>
      </trkpt>
      <trkpt lon="11.5443325043" lat="47.1359405518">
          <ele>1430</ele>
          <time>2026-05-02T07:14:05Z</time>
      </trkpt>
      <trkpt lon="11.5444488525" lat="47.1358642578">
          <ele>1431</ele>
          <time>2026-05-02T07:14:09Z</time>
      </trkpt>
      <trkpt lon="11.5445575714" lat="47.1357803345">
          <ele>1432</ele>
          <time>2026-05-02T07:14:14Z</time>
      </trkpt>
      <trkpt lon="11.5446443558" lat="47.1356887817">
          <ele>1433</ele>
          <time>2026-05-02T07:14:19Z</time>
      </trkpt>
      <trkpt lon="11.5447416306" lat="47.135597229">
          <ele>1435</ele>
          <time>2026-05-02T07:14:24Z</time>
      </trkpt>
      <trkpt lon="11.544875145" lat="47.1355209351">
          <ele>1436</ele>
          <time>2026-05-02T07:14:29Z</time>
      </trkpt>
      <trkpt lon="11.5450267792" lat="47.135471344">
          <ele>1437</ele>
          <time>2026-05-02T07:14:34Z</time>
      </trkpt>
      <trkpt lon="11.5451803207" lat="47.1354484558">
          <ele>1439</ele>
          <time>2026-05-02T07:14:39Z</time>
      </trkpt>
      <trkpt lon="11.5453529358" lat="47.1354598999">
          <ele>1441</ele>
          <time>2026-05-02T07:14:44Z</time>
      </trkpt>
      <trkpt lon="11.5454912186" lat="47.1355056763">
          <ele>1443</ele>
          <time>2026-05-02T07:14:48Z</time>
      </trkpt>
      <trkpt lon="11.545630455" lat="47.1355857849">
          <ele>1445</ele>
          <time>2026-05-02T07:14:53Z</time>
      </trkpt>
      <trkpt lon="11.5457048416" lat="47.1356811523">
          <ele>1447</ele>
          <time>2026-05-02T07:14:58Z</time>
      </trkpt>
      <trkpt lon="11.5458068848" lat="47.1357650757">
          <ele>1450</ele>
          <time>2026-05-02T07:15:03Z</time>
      </trkpt>
      <trkpt lon="11.545923233" lat="47.135848999">
          <ele>1453</ele>
          <time>2026-05-02T07:15:08Z</time>
      </trkpt>
      <trkpt lon="11.5460205078" lat="47.1359443665">
          <ele>1454</ele>
          <time>2026-05-02T07:15:13Z</time>
      </trkpt>
      <trkpt lon="11.5461053848" lat="47.1360473633">
          <ele>1455</ele>
          <time>2026-05-02T07:15:18Z</time>
      </trkpt>
      <trkpt lon="11.5461893082" lat="47.1361541748">
          <ele>1457</ele>
          <time>2026-05-02T07:15:23Z</time>
      </trkpt>
      <trkpt lon="11.5462646484" lat="47.1362571716">
          <ele>1458</ele>
          <time>2026-05-02T07:15:28Z</time>
      </trkpt>
      <trkpt lon="11.5463581085" lat="47.1363487244">
          <ele>1460</ele>
          <time>2026-05-02T07:15:33Z</time>
      </trkpt>
      <trkpt lon="11.5464477539" lat="47.1364517212">
          <ele>1462</ele>
          <time>2026-05-02T07:15:38Z</time>
      </trkpt>
      <trkpt lon="11.5465431213" lat="47.1365394592">
          <ele>1464</ele>
          <time>2026-05-02T07:15:43Z</time>
      </trkpt>
      <trkpt lon="11.5466098785" lat="47.1366386414">
          <ele>1466</ele>
          <time>2026-05-02T07:15:48Z</time>
      </trkpt>
      <trkpt lon="11.5466918945" lat="47.1367263794">
          <ele>1467</ele>
          <time>2026-05-02T07:15:53Z</time>
      </trkpt>
      <trkpt lon="11.546792984" lat="47.1368141174">
          <ele>1469</ele>
          <time>2026-05-02T07:15:58Z</time>
      </trkpt>
      <trkpt lon="11.5468568802" lat="47.1369171143">
          <ele>1470</ele>
          <time>2026-05-02T07:16:03Z</time>
      </trkpt>
      <trkpt lon="11.5469150543" lat="47.137008667">
          <ele>1471</ele>
          <time>2026-05-02T07:16:08Z</time>
      </trkpt>
      <trkpt lon="11.5469703674" lat="47.1371002197">
          <ele>1471</ele>
          <time>2026-05-02T07:16:13Z</time>
      </trkpt>
      <trkpt lon="11.5470352173" lat="47.1371879578">
          <ele>1473</ele>
          <time>2026-05-02T07:16:18Z</time>
      </trkpt>
      <trkpt lon="11.547085762" lat="47.1372833252">
          <ele>1474</ele>
          <time>2026-05-02T07:16:23Z</time>
      </trkpt>
      <trkpt lon="11.5471277237" lat="47.1373825073">
          <ele>1476</ele>
          <time>2026-05-02T07:16:28Z</time>
      </trkpt>
      <trkpt lon="11.5471916199" lat="47.1374740601">
          <ele>1479</ele>
          <time>2026-05-02T07:16:33Z</time>
      </trkpt>
      <trkpt lon="11.5472745895" lat="47.1375732422">
          <ele>1480</ele>
          <time>2026-05-02T07:16:39Z</time>
      </trkpt>
      <trkpt lon="11.5473842621" lat="47.1376495361">
          <ele>1481</ele>
          <time>2026-05-02T07:16:44Z</time>
      </trkpt>
      <trkpt lon="11.5475072861" lat="47.137714386">
          <ele>1482</ele>
          <time>2026-05-02T07:16:49Z</time>
      </trkpt>
      <trkpt lon="11.5476350784" lat="47.1377716064">
          <ele>1483</ele>
          <time>2026-05-02T07:16:54Z</time>
      </trkpt>
      <trkpt lon="11.5477523804" lat="47.1378364563">
          <ele>1484</ele>
          <time>2026-05-02T07:16:59Z</time>
      </trkpt>
      <trkpt lon="11.5478553772" lat="47.1379089355">
          <ele>1485</ele>
          <time>2026-05-02T07:17:04Z</time>
      </trkpt>
      <trkpt lon="11.547958374" lat="47.1379814148">
          <ele>1487</ele>
          <time>2026-05-02T07:17:09Z</time>
      </trkpt>
      <trkpt lon="11.5480279922" lat="47.1380805969">
          <ele>1489</ele>
          <time>2026-05-02T07:17:14Z</time>
      </trkpt>
      <trkpt lon="11.548116684" lat="47.1381835938">
          <ele>1489</ele>
          <time>2026-05-02T07:17:19Z</time>
      </trkpt>
      <trkpt lon="11.5482645035" lat="47.1382598877">
          <ele>1490</ele>
          <time>2026-05-02T07:17:24Z</time>
      </trkpt>
      <trkpt lon="11.5484161377" lat="47.138343811">
          <ele>1492</ele>
          <time>2026-05-02T07:17:28Z</time>
      </trkpt>
      <trkpt lon="11.5485448837" lat="47.1384048462">
          <ele>1492</ele>
          <time>2026-05-02T07:17:31Z</time>
      </trkpt>
      <trkpt lon="11.5486946106" lat="47.1384658813">
          <ele>1492</ele>
          <time>2026-05-02T07:17:34Z</time>
      </trkpt>
      <trkpt lon="11.5488319397" lat="47.1385345459">
          <ele>1492</ele>
          <time>2026-05-02T07:17:37Z</time>
      </trkpt>
      <trkpt lon="11.5489807129" lat="47.1385993958">
          <ele>1492</ele>
          <time>2026-05-02T07:17:40Z</time>
      </trkpt>
      <trkpt lon="11.549123764" lat="47.1386604309">
          <ele>1492</ele>
          <time>2026-05-02T07:17:43Z</time>
      </trkpt>
      <trkpt lon="11.549249649" lat="47.1387252808">
          <ele>1492</ele>
          <time>2026-05-02T07:17:46Z</time>
      </trkpt>
      <trkpt lon="11.5493936539" lat="47.1387901306">
          <ele>1493</ele>
          <time>2026-05-02T07:17:50Z</time>
      </trkpt>
      <trkpt lon="11.5495405197" lat="47.1388511658">
          <ele>1494</ele>
          <time>2026-05-02T07:17:55Z</time>
      </trkpt>
      <trkpt lon="11.5496864319" lat="47.1389160156">
          <ele>1495</ele>
          <time>2026-05-02T07:18:00Z</time>
      </trkpt>
      <trkpt lon="11.5498189926" lat="47.1389846802">
          <ele>1496</ele>
          <time>2026-05-02T07:18:04Z</time>
      </trkpt>
      <trkpt lon="11.5499353409" lat="47.13904953">
          <ele>1496</ele>
          <time>2026-05-02T07:18:07Z</time>
      </trkpt>
      <trkpt lon="11.5500516891" lat="47.1391105652">
          <ele>1497</ele>
          <time>2026-05-02T07:18:10Z</time>
      </trkpt>
      <trkpt lon="11.5501737595" lat="47.1391792297">
          <ele>1497</ele>
          <time>2026-05-02T07:18:13Z</time>
      </trkpt>
      <trkpt lon="11.5502977371" lat="47.1392478943">
          <ele>1498</ele>
          <time>2026-05-02T07:18:16Z</time>
      </trkpt>
      <trkpt lon="11.5504264832" lat="47.1393203735">
          <ele>1498</ele>
          <time>2026-05-02T07:18:19Z</time>
      </trkpt>
      <trkpt lon="11.550567627" lat="47.1393890381">
          <ele>1499</ele>
          <time>2026-05-02T07:18:22Z</time>
      </trkpt>
      <trkpt lon="11.5507221222" lat="47.1394538879">
          <ele>1499</ele>
          <time>2026-05-02T07:18:25Z</time>
      </trkpt>
      <trkpt lon="11.5508708954" lat="47.1395072937">
          <ele>1499</ele>
          <time>2026-05-02T07:18:28Z</time>
      </trkpt>
      <trkpt lon="11.551027298" lat="47.1395606995">
          <ele>1500</ele>
          <time>2026-05-02T07:18:31Z</time>
      </trkpt>
      <trkpt lon="11.5511779785" lat="47.139591217">
          <ele>1500</ele>
          <time>2026-05-02T07:18:34Z</time>
      </trkpt>
      <trkpt lon="11.5513362885" lat="47.1396331787">
          <ele>1501</ele>
          <time>2026-05-02T07:18:38Z</time>
      </trkpt>
      <trkpt lon="11.5514659882" lat="47.1396865845">
          <ele>1502</ele>
          <time>2026-05-02T07:18:42Z</time>
      </trkpt>
      <trkpt lon="11.5516080856" lat="47.1397399902">
          <ele>1504</ele>
          <time>2026-05-02T07:18:47Z</time>
      </trkpt>
      <trkpt lon="11.5517349243" lat="47.1397972107">
          <ele>1505</ele>
          <time>2026-05-02T07:18:52Z</time>
      </trkpt>
      <trkpt lon="11.5518627167" lat="47.1398620605">
          <ele>1507</ele>
          <time>2026-05-02T07:18:57Z</time>
      </trkpt>
      <trkpt lon="11.5519943237" lat="47.1399230957">
          <ele>1509</ele>
          <time>2026-05-02T07:19:02Z</time>
      </trkpt>
      <trkpt lon="11.5521020889" lat="47.1400032043">
          <ele>1510</ele>
          <time>2026-05-02T07:19:07Z</time>
      </trkpt>
      <trkpt lon="11.5521450043" lat="47.1401023865">
          <ele>1511</ele>
          <time>2026-05-02T07:19:12Z</time>
      </trkpt>
      <trkpt lon="11.5521688461" lat="47.1402168274">
          <ele>1512</ele>
          <time>2026-05-02T07:19:17Z</time>
      </trkpt>
      <trkpt lon="11.5522327423" lat="47.1403236389">
          <ele>1512</ele>
          <time>2026-05-02T07:19:22Z</time>
      </trkpt>
      <trkpt lon="11.5523033142" lat="47.140411377">
          <ele>1513</ele>
          <time>2026-05-02T07:19:26Z</time>
      </trkpt>
      <trkpt lon="11.552365303" lat="47.1405067444">
          <ele>1514</ele>
          <time>2026-05-02T07:19:30Z</time>
      </trkpt>
      <trkpt lon="11.5524253845" lat="47.1405982971">
          <ele>1515</ele>
          <time>2026-05-02T07:19:34Z</time>
      </trkpt>
      <trkpt lon="11.5524730682" lat="47.1406974792">
          <ele>1516</ele>
          <time>2026-05-02T07:19:38Z</time>
      </trkpt>
      <trkpt lon="11.5525569916" lat="47.1408042908">
          <ele>1518</ele>
          <time>2026-05-02T07:19:43Z</time>
      </trkpt>
      <trkpt lon="11.5526313782" lat="47.1408882141">
          <ele>1520</ele>
          <time>2026-05-02T07:19:47Z</time>
      </trkpt>
      <trkpt lon="11.5527162552" lat="47.1409759521">
          <ele>1522</ele>
          <time>2026-05-02T07:19:52Z</time>
      </trkpt>
      <trkpt lon="11.5527954102" lat="47.1410675049">
          <ele>1523</ele>
          <time>2026-05-02T07:19:57Z</time>
      </trkpt>
      <trkpt lon="11.5528469086" lat="47.141166687">
          <ele>1524</ele>
          <time>2026-05-02T07:20:02Z</time>
      </trkpt>
      <trkpt lon="11.5529432297" lat="47.1412811279">
          <ele>1525</ele>
          <time>2026-05-02T07:22:12Z</time>
      </trkpt>
      <trkpt lon="11.5529527664" lat="47.1413879395">
          <ele>1526</ele>
          <time>2026-05-02T07:22:18Z</time>
      </trkpt>
      <trkpt lon="11.552983284" lat="47.1415023804">
          <ele>1525</ele>
          <time>2026-05-02T07:22:24Z</time>
      </trkpt>
      <trkpt lon="11.5530061722" lat="47.1416091919">
          <ele>1526</ele>
          <time>2026-05-02T07:22:29Z</time>
      </trkpt>
      <trkpt lon="11.5529670715" lat="47.1417045593">
          <ele>1526</ele>
          <time>2026-05-02T07:25:44Z</time>
      </trkpt>
      <trkpt lon="11.5531139374" lat="47.1417160034">
          <ele>1526</ele>
          <time>2026-05-02T07:28:37Z</time>
      </trkpt>
      <trkpt lon="11.553196907" lat="47.1418151855">
          <ele>1529</ele>
          <time>2026-05-02T07:28:43Z</time>
      </trkpt>
      <trkpt lon="11.5532665253" lat="47.1419143677">
          <ele>1532</ele>
          <time>2026-05-02T07:28:49Z</time>
      </trkpt>
      <trkpt lon="11.5533218384" lat="47.1420059204">
          <ele>1534</ele>
          <time>2026-05-02T07:28:54Z</time>
      </trkpt>
      <trkpt lon="11.5533924103" lat="47.1420936584">
          <ele>1536</ele>
          <time>2026-05-02T07:28:59Z</time>
      </trkpt>
      <trkpt lon="11.5534744263" lat="47.14220047">
          <ele>1538</ele>
          <time>2026-05-02T07:29:04Z</time>
      </trkpt>
      <trkpt lon="11.5535612106" lat="47.1422996521">
          <ele>1540</ele>
          <time>2026-05-02T07:29:10Z</time>
      </trkpt>
      <trkpt lon="11.553645134" lat="47.1423873901">
          <ele>1542</ele>
          <time>2026-05-02T07:29:15Z</time>
      </trkpt>
      <trkpt lon="11.5537137985" lat="47.142490387">
          <ele>1544</ele>
          <time>2026-05-02T07:29:21Z</time>
      </trkpt>
      <trkpt lon="11.5537166595" lat="47.1425895691">
          <ele>1544</ele>
          <time>2026-05-02T07:29:25Z</time>
      </trkpt>
      <trkpt lon="11.5537347794" lat="47.1427001953">
          <ele>1545</ele>
          <time>2026-05-02T07:29:29Z</time>
      </trkpt>
      <trkpt lon="11.5537776947" lat="47.1428108215">
          <ele>1548</ele>
          <time>2026-05-02T07:29:34Z</time>
      </trkpt>
      <trkpt lon="11.5538234711" lat="47.1429290771">
          <ele>1550</ele>
          <time>2026-05-02T07:29:39Z</time>
      </trkpt>
      <trkpt lon="11.553814888" lat="47.1430473328">
          <ele>1551</ele>
          <time>2026-05-02T07:29:43Z</time>
      </trkpt>
      <trkpt lon="11.5538043976" lat="47.1431503296">
          <ele>1552</ele>
          <time>2026-05-02T07:29:46Z</time>
      </trkpt>
      <trkpt lon="11.5538053513" lat="47.1432723999">
          <ele>1554</ele>
          <time>2026-05-02T07:29:50Z</time>
      </trkpt>
      <trkpt lon="11.5538101196" lat="47.1433906555">
          <ele>1554</ele>
          <time>2026-05-02T07:29:54Z</time>
      </trkpt>
      <trkpt lon="11.5538101196" lat="47.1434936523">
          <ele>1555</ele>
          <time>2026-05-02T07:29:58Z</time>
      </trkpt>
      <trkpt lon="11.5538196564" lat="47.1435928345">
          <ele>1555</ele>
          <time>2026-05-02T07:30:02Z</time>
      </trkpt>
      <trkpt lon="11.5538654327" lat="47.1437149048">
          <ele>1555</ele>
          <time>2026-05-02T07:30:07Z</time>
      </trkpt>
      <trkpt lon="11.5538911819" lat="47.143825531">
          <ele>1556</ele>
          <time>2026-05-02T07:30:12Z</time>
      </trkpt>
      <trkpt lon="11.5539484024" lat="47.1439399719">
          <ele>1558</ele>
          <time>2026-05-02T07:30:17Z</time>
      </trkpt>
      <trkpt lon="11.554028511" lat="47.1440467834">
          <ele>1559</ele>
          <time>2026-05-02T07:30:22Z</time>
      </trkpt>
      <trkpt lon="11.5540904999" lat="47.1441383362">
          <ele>1560</ele>
          <time>2026-05-02T07:30:27Z</time>
      </trkpt>
      <trkpt lon="11.5541639328" lat="47.1442298889">
          <ele>1561</ele>
          <time>2026-05-02T07:30:32Z</time>
      </trkpt>
      <trkpt lon="11.5542383194" lat="47.1443367004">
          <ele>1563</ele>
          <time>2026-05-02T07:30:37Z</time>
      </trkpt>
      <trkpt lon="11.5543260574" lat="47.144443512">
          <ele>1564</ele>
          <time>2026-05-02T07:30:42Z</time>
      </trkpt>
      <trkpt lon="11.5543756485" lat="47.1445503235">
          <ele>1565</ele>
          <time>2026-05-02T07:30:46Z</time>
      </trkpt>
      <trkpt lon="11.5544538498" lat="47.1446533203">
          <ele>1566</ele>
          <time>2026-05-02T07:30:51Z</time>
      </trkpt>
      <trkpt lon="11.5545434952" lat="47.144744873">
          <ele>1567</ele>
          <time>2026-05-02T07:30:56Z</time>
      </trkpt>
      <trkpt lon="11.55464077" lat="47.144821167">
          <ele>1568</ele>
          <time>2026-05-02T07:31:01Z</time>
      </trkpt>
      <trkpt lon="11.5547447205" lat="47.1448936462">
          <ele>1569</ele>
          <time>2026-05-02T07:31:06Z</time>
      </trkpt>
      <trkpt lon="11.5548877716" lat="47.1449508667">
          <ele>1571</ele>
          <time>2026-05-02T07:31:13Z</time>
      </trkpt>
      <trkpt lon="11.5550355911" lat="47.1449928284">
          <ele>1572</ele>
          <time>2026-05-02T07:31:19Z</time>
      </trkpt>
      <trkpt lon="11.5551748276" lat="47.14503479">
          <ele>1574</ele>
          <time>2026-05-02T07:31:25Z</time>
      </trkpt>
      <trkpt lon="11.5553026199" lat="47.1451034546">
          <ele>1575</ele>
          <time>2026-05-02T07:31:31Z</time>
      </trkpt>
      <trkpt lon="11.555437088" lat="47.1451454163">
          <ele>1576</ele>
          <time>2026-05-02T07:31:36Z</time>
      </trkpt>
      <trkpt lon="11.5555830002" lat="47.1451683044">
          <ele>1577</ele>
          <time>2026-05-02T07:31:41Z</time>
      </trkpt>
      <trkpt lon="11.5557422638" lat="47.1451835632">
          <ele>1578</ele>
          <time>2026-05-02T07:31:47Z</time>
      </trkpt>
      <trkpt lon="11.5558719635" lat="47.1452407837">
          <ele>1580</ele>
          <time>2026-05-02T07:31:52Z</time>
      </trkpt>
      <trkpt lon="11.5559682846" lat="47.145324707">
          <ele>1581</ele>
          <time>2026-05-02T07:31:58Z</time>
      </trkpt>
      <trkpt lon="11.5560684204" lat="47.1454124451">
          <ele>1584</ele>
          <time>2026-05-02T07:32:04Z</time>
      </trkpt>
      <trkpt lon="11.5561494827" lat="47.1455078125">
          <ele>1587</ele>
          <time>2026-05-02T07:32:10Z</time>
      </trkpt>
      <trkpt lon="11.5562562943" lat="47.1455841064">
          <ele>1592</ele>
          <time>2026-05-02T07:32:15Z</time>
      </trkpt>
      <trkpt lon="11.5563526154" lat="47.1456642151">
          <ele>1596</ele>
          <time>2026-05-02T07:32:20Z</time>
      </trkpt>
      <trkpt lon="11.5564088821" lat="47.1457633972">
          <ele>1599</ele>
          <time>2026-05-02T07:32:26Z</time>
      </trkpt>
      <trkpt lon="11.556470871" lat="47.1458702087">
          <ele>1599</ele>
          <time>2026-05-02T07:32:32Z</time>
      </trkpt>
      <trkpt lon="11.5565500259" lat="47.1459732056">
          <ele>1599</ele>
          <time>2026-05-02T07:32:37Z</time>
      </trkpt>
      <trkpt lon="11.5566329956" lat="47.1460647583">
          <ele>1600</ele>
          <time>2026-05-02T07:32:42Z</time>
      </trkpt>
      <trkpt lon="11.5566978455" lat="47.1461601257">
          <ele>1601</ele>
          <time>2026-05-02T07:32:47Z</time>
      </trkpt>
      <trkpt lon="11.5567865372" lat="47.1462478638">
          <ele>1603</ele>
          <time>2026-05-02T07:32:52Z</time>
      </trkpt>
      <trkpt lon="11.5568523407" lat="47.1463432312">
          <ele>1604</ele>
          <time>2026-05-02T07:32:57Z</time>
      </trkpt>
      <trkpt lon="11.5569076538" lat="47.1464347839">
          <ele>1605</ele>
          <time>2026-05-02T07:33:01Z</time>
      </trkpt>
      <trkpt lon="11.5569820404" lat="47.1465415955">
          <ele>1606</ele>
          <time>2026-05-02T07:33:06Z</time>
      </trkpt>
      <trkpt lon="11.5570392609" lat="47.1466369629">
          <ele>1607</ele>
          <time>2026-05-02T07:33:11Z</time>
      </trkpt>
      <trkpt lon="11.5571041107" lat="47.1467285156">
          <ele>1609</ele>
          <time>2026-05-02T07:33:15Z</time>
      </trkpt>
      <trkpt lon="11.5571832657" lat="47.146812439">
          <ele>1610</ele>
          <time>2026-05-02T07:33:19Z</time>
      </trkpt>
      <trkpt lon="11.5572462082" lat="47.1469116211">
          <ele>1611</ele>
          <time>2026-05-02T07:33:24Z</time>
      </trkpt>
      <trkpt lon="11.5573234558" lat="47.1470031738">
          <ele>1612</ele>
          <time>2026-05-02T07:33:29Z</time>
      </trkpt>
      <trkpt lon="11.5574111938" lat="47.1470870972">
          <ele>1613</ele>
          <time>2026-05-02T07:33:33Z</time>
      </trkpt>
      <trkpt lon="11.5575037003" lat="47.147190094">
          <ele>1615</ele>
          <time>2026-05-02T07:33:38Z</time>
      </trkpt>
      <trkpt lon="11.5575723648" lat="47.147277832">
          <ele>1616</ele>
          <time>2026-05-02T07:33:42Z</time>
      </trkpt>
      <trkpt lon="11.5576572418" lat="47.1473846436">
          <ele>1617</ele>
          <time>2026-05-02T07:33:46Z</time>
      </trkpt>
      <trkpt lon="11.5576686859" lat="47.1474990845">
          <ele>1617</ele>
          <time>2026-05-02T07:33:50Z</time>
      </trkpt>
      <trkpt lon="11.5575904846" lat="47.1476135254">
          <ele>1617</ele>
          <time>2026-05-02T07:33:54Z</time>
      </trkpt>
      <trkpt lon="11.5575628281" lat="47.1477127075">
          <ele>1617</ele>
          <time>2026-05-02T07:33:57Z</time>
      </trkpt>
      <trkpt lon="11.5575170517" lat="47.1478385925">
          <ele>1618</ele>
          <time>2026-05-02T07:34:01Z</time>
      </trkpt>
      <trkpt lon="11.5574207306" lat="47.1479225159">
          <ele>1619</ele>
          <time>2026-05-02T07:34:05Z</time>
      </trkpt>
      <trkpt lon="11.5572834015" lat="47.1479988098">
          <ele>1620</ele>
          <time>2026-05-02T07:34:09Z</time>
      </trkpt>
      <trkpt lon="11.5571813583" lat="47.1480903625">
          <ele>1621</ele>
          <time>2026-05-02T07:34:13Z</time>
      </trkpt>
      <trkpt lon="11.5571117401" lat="47.1481819153">
          <ele>1622</ele>
          <time>2026-05-02T07:34:17Z</time>
      </trkpt>
      <trkpt lon="11.5570487976" lat="47.1482887268">
          <ele>1623</ele>
          <time>2026-05-02T07:34:21Z</time>
      </trkpt>
      <trkpt lon="11.5569801331" lat="47.1483802795">
          <ele>1623</ele>
          <time>2026-05-02T07:34:25Z</time>
      </trkpt>
      <trkpt lon="11.5569391251" lat="47.1484870911">
          <ele>1624</ele>
          <time>2026-05-02T07:34:30Z</time>
      </trkpt>
      <trkpt lon="11.556886673" lat="47.1486053467">
          <ele>1625</ele>
          <time>2026-05-02T07:34:35Z</time>
      </trkpt>
      <trkpt lon="11.5568189621" lat="47.1486930847">
          <ele>1627</ele>
          <time>2026-05-02T07:34:39Z</time>
      </trkpt>
      <trkpt lon="11.556687355" lat="47.148651123">
          <ele>1628</ele>
          <time>2026-05-02T07:34:46Z</time>
      </trkpt>
      <trkpt lon="11.5567388535" lat="47.1485595703">
          <ele>1630</ele>
          <time>2026-05-02T07:34:52Z</time>
      </trkpt>
      <trkpt lon="11.5567770004" lat="47.1484489441">
          <ele>1631</ele>
          <time>2026-05-02T07:34:58Z</time>
      </trkpt>
      <trkpt lon="11.5567655563" lat="47.1483535767">
          <ele>1634</ele>
          <time>2026-05-02T07:35:03Z</time>
      </trkpt>
      <trkpt lon="11.5568008423" lat="47.1482543945">
          <ele>1637</ele>
          <time>2026-05-02T07:35:08Z</time>
      </trkpt>
      <trkpt lon="11.5568361282" lat="47.1481590271">
          <ele>1640</ele>
          <time>2026-05-02T07:35:13Z</time>
      </trkpt>
      <trkpt lon="11.5568695068" lat="47.1480445862">
          <ele>1641</ele>
          <time>2026-05-02T07:35:18Z</time>
      </trkpt>
      <trkpt lon="11.5569286346" lat="47.14793396">
          <ele>1642</ele>
          <time>2026-05-02T07:35:23Z</time>
      </trkpt>
      <trkpt lon="11.5569601059" lat="47.1478347778">
          <ele>1643</ele>
          <time>2026-05-02T07:35:28Z</time>
      </trkpt>
      <trkpt lon="11.5570106506" lat="47.1477241516">
          <ele>1643</ele>
          <time>2026-05-02T07:35:33Z</time>
      </trkpt>
      <trkpt lon="11.5570440292" lat="47.1476173401">
          <ele>1644</ele>
          <time>2026-05-02T07:35:38Z</time>
      </trkpt>
      <trkpt lon="11.5570573807" lat="47.147518158">
          <ele>1644</ele>
          <time>2026-05-02T07:35:44Z</time>
      </trkpt>
      <trkpt lon="11.5570173264" lat="47.1474075317">
          <ele>1644</ele>
          <time>2026-05-02T07:35:50Z</time>
      </trkpt>
      <trkpt lon="11.5569257736" lat="47.1473121643">
          <ele>1646</ele>
          <time>2026-05-02T07:35:57Z</time>
      </trkpt>
      <trkpt lon="11.556807518" lat="47.1472396851">
          <ele>1648</ele>
          <time>2026-05-02T07:36:02Z</time>
      </trkpt>
      <trkpt lon="11.5566940308" lat="47.1471633911">
          <ele>1649</ele>
          <time>2026-05-02T07:36:08Z</time>
      </trkpt>
      <trkpt lon="11.5565710068" lat="47.1470909119">
          <ele>1649</ele>
          <time>2026-05-02T07:36:13Z</time>
      </trkpt>
      <trkpt lon="11.5564537048" lat="47.1470336914">
          <ele>1651</ele>
          <time>2026-05-02T07:36:18Z</time>
      </trkpt>
      <trkpt lon="11.5563106537" lat="47.1469764709">
          <ele>1651</ele>
          <time>2026-05-02T07:36:24Z</time>
      </trkpt>
      <trkpt lon="11.5561876297" lat="47.1469078064">
          <ele>1653</ele>
          <time>2026-05-02T07:36:29Z</time>
      </trkpt>
      <trkpt lon="11.5560684204" lat="47.1468467712">
          <ele>1654</ele>
          <time>2026-05-02T07:36:34Z</time>
      </trkpt>
      <trkpt lon="11.5559473038" lat="47.1467781067">
          <ele>1655</ele>
          <time>2026-05-02T07:36:39Z</time>
      </trkpt>
      <trkpt lon="11.5558481216" lat="47.1467018127">
          <ele>1658</ele>
          <time>2026-05-02T07:36:43Z</time>
      </trkpt>
      <trkpt lon="11.5557279587" lat="47.1466293335">
          <ele>1660</ele>
          <time>2026-05-02T07:36:47Z</time>
      </trkpt>
      <trkpt lon="11.5555973053" lat="47.1465873718">
          <ele>1664</ele>
          <time>2026-05-02T07:36:53Z</time>
      </trkpt>
      <trkpt lon="11.5554561615" lat="47.1465454102">
          <ele>1665</ele>
          <time>2026-05-02T07:36:58Z</time>
      </trkpt>
      <trkpt lon="11.5553255081" lat="47.1464881897">
          <ele>1665</ele>
          <time>2026-05-02T07:37:03Z</time>
      </trkpt>
      <trkpt lon="11.5551986694" lat="47.1464385986">
          <ele>1665</ele>
          <time>2026-05-02T07:37:08Z</time>
      </trkpt>
      <trkpt lon="11.5550403595" lat="47.1464271545">
          <ele>1665</ele>
          <time>2026-05-02T07:37:13Z</time>
      </trkpt>
      <trkpt lon="11.5548810959" lat="47.1464080811">
          <ele>1667</ele>
          <time>2026-05-02T07:37:18Z</time>
      </trkpt>
      <trkpt lon="11.5547161102" lat="47.1463851929">
          <ele>1670</ele>
          <time>2026-05-02T07:37:24Z</time>
      </trkpt>
      <trkpt lon="11.5545835495" lat="47.1463470459">
          <ele>1673</ele>
          <time>2026-05-02T07:37:29Z</time>
      </trkpt>
      <trkpt lon="11.5544242859" lat="47.1463470459">
          <ele>1677</ele>
          <time>2026-05-02T07:37:35Z</time>
      </trkpt>
      <trkpt lon="11.5542631149" lat="47.1463432312">
          <ele>1681</ele>
          <time>2026-05-02T07:37:41Z</time>
      </trkpt>
      <trkpt lon="11.5541210175" lat="47.146320343">
          <ele>1684</ele>
          <time>2026-05-02T07:37:46Z</time>
      </trkpt>
      <trkpt lon="11.5539627075" lat="47.1463241577">
          <ele>1686</ele>
          <time>2026-05-02T07:37:51Z</time>
      </trkpt>
      <trkpt lon="11.5538167953" lat="47.1463508606">
          <ele>1689</ele>
          <time>2026-05-02T07:37:56Z</time>
      </trkpt>
      <trkpt lon="11.5536689758" lat="47.14635849">
          <ele>1689</ele>
          <time>2026-05-02T07:38:01Z</time>
      </trkpt>
      <trkpt lon="11.5535135269" lat="47.1463623047">
          <ele>1689</ele>
          <time>2026-05-02T07:38:06Z</time>
      </trkpt>
      <trkpt lon="11.5533676147" lat="47.1463699341">
          <ele>1689</ele>
          <time>2026-05-02T07:38:11Z</time>
      </trkpt>
      <trkpt lon="11.5532093048" lat="47.1463699341">
          <ele>1690</ele>
          <time>2026-05-02T07:38:16Z</time>
      </trkpt>
      <trkpt lon="11.5530557632" lat="47.1463661194">
          <ele>1690</ele>
          <time>2026-05-02T07:38:22Z</time>
      </trkpt>
      <trkpt lon="11.5529098511" lat="47.1463661194">
          <ele>1690</ele>
          <time>2026-05-02T07:38:27Z</time>
      </trkpt>
      <trkpt lon="11.5527353287" lat="47.14635849">
          <ele>1692</ele>
          <time>2026-05-02T07:38:33Z</time>
      </trkpt>
      <trkpt lon="11.5526075363" lat="47.1463127136">
          <ele>1694</ele>
          <time>2026-05-02T07:38:43Z</time>
      </trkpt>
      <trkpt lon="11.552564621" lat="47.1463127136">
          <ele>1683</ele>
          <time>2026-05-02T07:40:05Z</time>
      </trkpt>
      <trkpt lon="11.5526046753" lat="47.1463165283">
          <ele>1694</ele>
          <time>2026-05-02T07:43:50Z</time>
      </trkpt>
      <trkpt lon="11.552532196" lat="47.1462135315">
          <ele>1694</ele>
          <time>2026-05-02T07:43:59Z</time>
      </trkpt>
      <trkpt lon="11.5524511337" lat="47.1461296082">
          <ele>1695</ele>
          <time>2026-05-02T07:44:05Z</time>
      </trkpt>
      <trkpt lon="11.5523729324" lat="47.1460418701">
          <ele>1695</ele>
          <time>2026-05-02T07:44:09Z</time>
      </trkpt>
      <trkpt lon="11.5522890091" lat="47.1459541321">
          <ele>1694</ele>
          <time>2026-05-02T07:44:14Z</time>
      </trkpt>
      <trkpt lon="11.5521993637" lat="47.1458702087">
          <ele>1693</ele>
          <time>2026-05-02T07:44:19Z</time>
      </trkpt>
      <trkpt lon="11.5520648956" lat="47.1458015442">
          <ele>1694</ele>
          <time>2026-05-02T07:44:25Z</time>
      </trkpt>
      <trkpt lon="11.5519304276" lat="47.1457672119">
          <ele>1696</ele>
          <time>2026-05-02T07:44:30Z</time>
      </trkpt>
      <trkpt lon="11.5517683029" lat="47.1457595825">
          <ele>1697</ele>
          <time>2026-05-02T07:44:35Z</time>
      </trkpt>
      <trkpt lon="11.5516052246" lat="47.145740509">
          <ele>1699</ele>
          <time>2026-05-02T07:44:41Z</time>
      </trkpt>
      <trkpt lon="11.5514507294" lat="47.1457328796">
          <ele>1700</ele>
          <time>2026-05-02T07:44:46Z</time>
      </trkpt>
      <trkpt lon="11.5512914658" lat="47.1457328796">
          <ele>1701</ele>
          <time>2026-05-02T07:44:51Z</time>
      </trkpt>
      <trkpt lon="11.5511274338" lat="47.145740509">
          <ele>1702</ele>
          <time>2026-05-02T07:44:56Z</time>
      </trkpt>
      <trkpt lon="11.5509529114" lat="47.145740509">
          <ele>1703</ele>
          <time>2026-05-02T07:45:01Z</time>
      </trkpt>
      <trkpt lon="11.5507698059" lat="47.145740509">
          <ele>1704</ele>
          <time>2026-05-02T07:45:06Z</time>
      </trkpt>
      <trkpt lon="11.5506038666" lat="47.1457290649">
          <ele>1704</ele>
          <time>2026-05-02T07:45:12Z</time>
      </trkpt>
      <trkpt lon="11.5504770279" lat="47.1456642151">
          <ele>1705</ele>
          <time>2026-05-02T07:45:18Z</time>
      </trkpt>
      <trkpt lon="11.5503749847" lat="47.1455917358">
          <ele>1707</ele>
          <time>2026-05-02T07:45:23Z</time>
      </trkpt>
      <trkpt lon="11.5502347946" lat="47.1455230713">
          <ele>1708</ele>
          <time>2026-05-02T07:45:29Z</time>
      </trkpt>
      <trkpt lon="11.5500736237" lat="47.1455154419">
          <ele>1710</ele>
          <time>2026-05-02T07:45:34Z</time>
      </trkpt>
      <trkpt lon="11.5499095917" lat="47.1455116272">
          <ele>1712</ele>
          <time>2026-05-02T07:45:39Z</time>
      </trkpt>
      <trkpt lon="11.5497426987" lat="47.1454963684">
          <ele>1715</ele>
          <time>2026-05-02T07:45:45Z</time>
      </trkpt>
      <trkpt lon="11.5496034622" lat="47.1454658508">
          <ele>1717</ele>
          <time>2026-05-02T07:45:50Z</time>
      </trkpt>
      <trkpt lon="11.5495262146" lat="47.1453819275">
          <ele>1719</ele>
          <time>2026-05-02T07:45:55Z</time>
      </trkpt>
      <trkpt lon="11.5494375229" lat="47.1452903748">
          <ele>1722</ele>
          <time>2026-05-02T07:46:01Z</time>
      </trkpt>
      <trkpt lon="11.5493297577" lat="47.1452102661">
          <ele>1727</ele>
          <time>2026-05-02T07:46:07Z</time>
      </trkpt>
      <trkpt lon="11.5492115021" lat="47.1451301575">
          <ele>1730</ele>
          <time>2026-05-02T07:46:12Z</time>
      </trkpt>
      <trkpt lon="11.5490722656" lat="47.1450805664">
          <ele>1730</ele>
          <time>2026-05-02T07:46:17Z</time>
      </trkpt>
      <trkpt lon="11.548915863" lat="47.1450538635">
          <ele>1730</ele>
          <time>2026-05-02T07:46:22Z</time>
      </trkpt>
      <trkpt lon="11.5487537384" lat="47.1450233459">
          <ele>1731</ele>
          <time>2026-05-02T07:46:28Z</time>
      </trkpt>
      <trkpt lon="11.5486040115" lat="47.14503479">
          <ele>1732</ele>
          <time>2026-05-02T07:46:33Z</time>
      </trkpt>
      <trkpt lon="11.5486192703" lat="47.1451339722">
          <ele>1734</ele>
          <time>2026-05-02T07:46:38Z</time>
      </trkpt>
      <trkpt lon="11.5487508774" lat="47.145198822">
          <ele>1737</ele>
          <time>2026-05-02T07:46:43Z</time>
      </trkpt>
      <trkpt lon="11.5488853455" lat="47.145275116">
          <ele>1739</ele>
          <time>2026-05-02T07:46:49Z</time>
      </trkpt>
      <trkpt lon="11.5489997864" lat="47.1453475952">
          <ele>1739</ele>
          <time>2026-05-02T07:46:54Z</time>
      </trkpt>
      <trkpt lon="11.549115181" lat="47.1454315186">
          <ele>1738</ele>
          <time>2026-05-02T07:47:00Z</time>
      </trkpt>
      <trkpt lon="11.5491895676" lat="47.1455192566">
          <ele>1740</ele>
          <time>2026-05-02T07:47:05Z</time>
      </trkpt>
      <trkpt lon="11.5492506027" lat="47.1456108093">
          <ele>1742</ele>
          <time>2026-05-02T07:47:10Z</time>
      </trkpt>
      <trkpt lon="11.5493030548" lat="47.1457023621">
          <ele>1744</ele>
          <time>2026-05-02T07:47:16Z</time>
      </trkpt>
      <trkpt lon="11.549413681" lat="47.1457862854">
          <ele>1744</ele>
          <time>2026-05-02T07:47:22Z</time>
      </trkpt>
      <trkpt lon="11.5495405197" lat="47.1458587646">
          <ele>1747</ele>
          <time>2026-05-02T07:47:28Z</time>
      </trkpt>
      <trkpt lon="11.5496788025" lat="47.1458969116">
          <ele>1749</ele>
          <time>2026-05-02T07:47:34Z</time>
      </trkpt>
      <trkpt lon="11.5497961044" lat="47.1459579468">
          <ele>1750</ele>
          <time>2026-05-02T07:47:39Z</time>
      </trkpt>
      <trkpt lon="11.5499019623" lat="47.1460456848">
          <ele>1751</ele>
          <time>2026-05-02T07:47:45Z</time>
      </trkpt>
      <trkpt lon="11.5499706268" lat="47.1461334229">
          <ele>1751</ele>
          <time>2026-05-02T07:47:50Z</time>
      </trkpt>
      <trkpt lon="11.5500822067" lat="47.1462249756">
          <ele>1752</ele>
          <time>2026-05-02T07:47:55Z</time>
      </trkpt>
      <trkpt lon="11.5501794815" lat="47.1462974548">
          <ele>1754</ele>
          <time>2026-05-02T07:48:00Z</time>
      </trkpt>
      <trkpt lon="11.5502948761" lat="47.1463661194">
          <ele>1756</ele>
          <time>2026-05-02T07:48:05Z</time>
      </trkpt>
      <trkpt lon="11.5504198074" lat="47.1464195251">
          <ele>1760</ele>
          <time>2026-05-02T07:48:10Z</time>
      </trkpt>
      <trkpt lon="11.5505666733" lat="47.1464614868">
          <ele>1761</ele>
          <time>2026-05-02T07:48:16Z</time>
      </trkpt>
      <trkpt lon="11.5507011414" lat="47.1464996338">
          <ele>1761</ele>
          <time>2026-05-02T07:48:21Z</time>
      </trkpt>
      <trkpt lon="11.5508584976" lat="47.1465339661">
          <ele>1762</ele>
          <time>2026-05-02T07:48:27Z</time>
      </trkpt>
      <trkpt lon="11.5510177612" lat="47.1465797424">
          <ele>1762</ele>
          <time>2026-05-02T07:48:33Z</time>
      </trkpt>
      <trkpt lon="11.5511426926" lat="47.1466369629">
          <ele>1763</ele>
          <time>2026-05-02T07:48:38Z</time>
      </trkpt>
      <trkpt lon="11.5512418747" lat="47.1467094421">
          <ele>1763</ele>
          <time>2026-05-02T07:48:42Z</time>
      </trkpt>
      <trkpt lon="11.5513410568" lat="47.1467819214">
          <ele>1763</ele>
          <time>2026-05-02T07:48:47Z</time>
      </trkpt>
      <trkpt lon="11.551410675" lat="47.1468696594">
          <ele>1764</ele>
          <time>2026-05-02T07:48:52Z</time>
      </trkpt>
      <trkpt lon="11.5514783859" lat="47.1469650269">
          <ele>1766</ele>
          <time>2026-05-02T07:48:58Z</time>
      </trkpt>
      <trkpt lon="11.5515394211" lat="47.1470603943">
          <ele>1770</ele>
          <time>2026-05-02T07:49:04Z</time>
      </trkpt>
      <trkpt lon="11.5516119003" lat="47.147151947">
          <ele>1773</ele>
          <time>2026-05-02T07:49:10Z</time>
      </trkpt>
      <trkpt lon="11.5516672134" lat="47.1472434998">
          <ele>1773</ele>
          <time>2026-05-02T07:49:16Z</time>
      </trkpt>
      <trkpt lon="11.5517301559" lat="47.1473350525">
          <ele>1774</ele>
          <time>2026-05-02T07:49:22Z</time>
      </trkpt>
      <trkpt lon="11.5518503189" lat="47.1473960876">
          <ele>1776</ele>
          <time>2026-05-02T07:49:28Z</time>
      </trkpt>
      <trkpt lon="11.5520000458" lat="47.1474342346">
          <ele>1779</ele>
          <time>2026-05-02T07:49:36Z</time>
      </trkpt>
      <trkpt lon="11.5521116257" lat="47.1474990845">
          <ele>1777</ele>
          <time>2026-05-02T07:50:50Z</time>
      </trkpt>
      <trkpt lon="11.5519647598" lat="47.1474571228">
          <ele>1775</ele>
          <time>2026-05-02T07:51:14Z</time>
      </trkpt>
      <trkpt lon="11.5520887375" lat="47.1475067139">
          <ele>1777</ele>
          <time>2026-05-02T07:54:27Z</time>
      </trkpt>
      <trkpt lon="11.5522117615" lat="47.1475715637">
          <ele>1777</ele>
          <time>2026-05-02T07:54:33Z</time>
      </trkpt>
      <trkpt lon="11.5523176193" lat="47.1476402283">
          <ele>1779</ele>
          <time>2026-05-02T07:54:43Z</time>
      </trkpt>
      <trkpt lon="11.5524778366" lat="47.1475791931">
          <ele>1782</ele>
          <time>2026-05-02T07:55:32Z</time>
      </trkpt>
      <trkpt lon="11.5523996353" lat="47.1476669312">
          <ele>1782</ele>
          <time>2026-05-02T07:55:50Z</time>
      </trkpt>
      <trkpt lon="11.5525388718" lat="47.1476097107">
          <ele>1780</ele>
          <time>2026-05-02T07:56:07Z</time>
      </trkpt>
      <trkpt lon="11.5526218414" lat="47.1475601196">
          <ele>1772</ele>
          <time>2026-05-02T07:56:18Z</time>
      </trkpt>
      <trkpt lon="11.5526447296" lat="47.1474647522">
          <ele>1768</ele>
          <time>2026-05-02T07:56:26Z</time>
      </trkpt>
      <trkpt lon="11.5526828766" lat="47.1474075317">
          <ele>1759</ele>
          <time>2026-05-02T07:56:41Z</time>
      </trkpt>
      <trkpt lon="11.5526895523" lat="47.1475028992">
          <ele>1762</ele>
          <time>2026-05-02T07:56:56Z</time>
      </trkpt>
      <trkpt lon="11.552687645" lat="47.1475868225">
          <ele>1768</ele>
          <time>2026-05-02T07:57:03Z</time>
      </trkpt>
      <trkpt lon="11.5526809692" lat="47.1476821899">
          <ele>1775</ele>
          <time>2026-05-02T07:57:09Z</time>
      </trkpt>
      <trkpt lon="11.5525960922" lat="47.1477394104">
          <ele>1782</ele>
          <time>2026-05-02T07:57:15Z</time>
      </trkpt>
      <trkpt lon="11.5524539948" lat="47.147808075">
          <ele>1782</ele>
          <time>2026-05-02T07:57:20Z</time>
      </trkpt>
      <trkpt lon="11.5524711609" lat="47.147895813">
          <ele>1777</ele>
          <time>2026-05-02T07:57:29Z</time>
      </trkpt>
      <trkpt lon="11.5525779724" lat="47.1479644775">
          <ele>1779</ele>
          <time>2026-05-02T07:57:42Z</time>
      </trkpt>
      <trkpt lon="11.5526313782" lat="47.1480560303">
          <ele>1783</ele>
          <time>2026-05-02T07:57:54Z</time>
      </trkpt>
      <trkpt lon="11.5526704788" lat="47.1481590271">
          <ele>1784</ele>
          <time>2026-05-02T07:58:01Z</time>
      </trkpt>
      <trkpt lon="11.5527210236" lat="47.1482543945">
          <ele>1785</ele>
          <time>2026-05-02T07:58:08Z</time>
      </trkpt>
      <trkpt lon="11.5527563095" lat="47.1483573914">
          <ele>1787</ele>
          <time>2026-05-02T07:58:15Z</time>
      </trkpt>
      <trkpt lon="11.5527133942" lat="47.1484603882">
          <ele>1790</ele>
          <time>2026-05-02T07:58:22Z</time>
      </trkpt>
      <trkpt lon="11.5525846481" lat="47.1485290527">
          <ele>1792</ele>
          <time>2026-05-02T07:58:28Z</time>
      </trkpt>
      <trkpt lon="11.5524435043" lat="47.1485824585">
          <ele>1793</ele>
          <time>2026-05-02T07:58:34Z</time>
      </trkpt>
      <trkpt lon="11.5523052216" lat="47.1486206055">
          <ele>1794</ele>
          <time>2026-05-02T07:58:40Z</time>
      </trkpt>
      <trkpt lon="11.5521554947" lat="47.1486587524">
          <ele>1793</ele>
          <time>2026-05-02T07:58:46Z</time>
      </trkpt>
      <trkpt lon="11.5520200729" lat="47.148727417">
          <ele>1794</ele>
          <time>2026-05-02T07:58:53Z</time>
      </trkpt>
      <trkpt lon="11.5519475937" lat="47.1488227844">
          <ele>1796</ele>
          <time>2026-05-02T07:58:57Z</time>
      </trkpt>
      <trkpt lon="11.5518951416" lat="47.1489448547">
          <ele>1798</ele>
          <time>2026-05-02T07:59:00Z</time>
      </trkpt>
      <trkpt lon="11.5518255234" lat="47.1490287781">
          <ele>1801</ele>
          <time>2026-05-02T07:59:03Z</time>
      </trkpt>
      <trkpt lon="11.5517463684" lat="47.1491165161">
          <ele>1804</ele>
          <time>2026-05-02T07:59:08Z</time>
      </trkpt>
      <trkpt lon="11.5516662598" lat="47.1492004395">
          <ele>1805</ele>
          <time>2026-05-02T07:59:12Z</time>
      </trkpt>
      <trkpt lon="11.5515813828" lat="47.1492881775">
          <ele>1806</ele>
          <time>2026-05-02T07:59:16Z</time>
      </trkpt>
      <trkpt lon="11.551525116" lat="47.1494026184">
          <ele>1806</ele>
          <time>2026-05-02T07:59:21Z</time>
      </trkpt>
      <trkpt lon="11.5514669418" lat="47.1495056152">
          <ele>1807</ele>
          <time>2026-05-02T07:59:26Z</time>
      </trkpt>
      <trkpt lon="11.551399231" lat="47.1496047974">
          <ele>1808</ele>
          <time>2026-05-02T07:59:32Z</time>
      </trkpt>
      <trkpt lon="11.5513505936" lat="47.1497039795">
          <ele>1804</ele>
          <time>2026-05-02T08:05:06Z</time>
      </trkpt>
      <trkpt lon="11.5512924194" lat="47.1497993469">
          <ele>1805</ele>
          <time>2026-05-02T08:05:11Z</time>
      </trkpt>
      <trkpt lon="11.5512695313" lat="47.1499176025">
          <ele>1806</ele>
          <time>2026-05-02T08:05:16Z</time>
      </trkpt>
      <trkpt lon="11.55123806" lat="47.1500167847">
          <ele>1807</ele>
          <time>2026-05-02T08:05:20Z</time>
      </trkpt>
      <trkpt lon="11.551202774" lat="47.1501274109">
          <ele>1807</ele>
          <time>2026-05-02T08:05:25Z</time>
      </trkpt>
      <trkpt lon="11.55119133" lat="47.1502342224">
          <ele>1809</ele>
          <time>2026-05-02T08:05:30Z</time>
      </trkpt>
      <trkpt lon="11.5511455536" lat="47.1503486633">
          <ele>1810</ele>
          <time>2026-05-02T08:05:35Z</time>
      </trkpt>
      <trkpt lon="11.551109314" lat="47.1504631042">
          <ele>1811</ele>
          <time>2026-05-02T08:05:40Z</time>
      </trkpt>
      <trkpt lon="11.5511054993" lat="47.1505661011">
          <ele>1812</ele>
          <time>2026-05-02T08:05:45Z</time>
      </trkpt>
      <trkpt lon="11.551150322" lat="47.1506576538">
          <ele>1815</ele>
          <time>2026-05-02T08:06:30Z</time>
      </trkpt>
      <trkpt lon="11.5511455536" lat="47.1507644653">
          <ele>1815</ele>
          <time>2026-05-02T08:06:35Z</time>
      </trkpt>
      <trkpt lon="11.5511264801" lat="47.1508674622">
          <ele>1816</ele>
          <time>2026-05-02T08:06:40Z</time>
      </trkpt>
      <trkpt lon="11.5511207581" lat="47.150970459">
          <ele>1817</ele>
          <time>2026-05-02T08:06:45Z</time>
      </trkpt>
      <trkpt lon="11.5511140823" lat="47.1510696411">
          <ele>1818</ele>
          <time>2026-05-02T08:06:50Z</time>
      </trkpt>
      <trkpt lon="11.551158905" lat="47.1511802673">
          <ele>1820</ele>
          <time>2026-05-02T08:06:56Z</time>
      </trkpt>
      <trkpt lon="11.5512113571" lat="47.1512832642">
          <ele>1821</ele>
          <time>2026-05-02T08:07:02Z</time>
      </trkpt>
      <trkpt lon="11.5512390137" lat="47.151386261">
          <ele>1822</ele>
          <time>2026-05-02T08:07:07Z</time>
      </trkpt>
      <trkpt lon="11.5512542725" lat="47.1514892578">
          <ele>1823</ele>
          <time>2026-05-02T08:07:12Z</time>
      </trkpt>
      <trkpt lon="11.5512905121" lat="47.1516036987">
          <ele>1824</ele>
          <time>2026-05-02T08:07:18Z</time>
      </trkpt>
      <trkpt lon="11.5513467789" lat="47.1517105103">
          <ele>1825</ele>
          <time>2026-05-02T08:07:24Z</time>
      </trkpt>
      <trkpt lon="11.5513324738" lat="47.1518173218">
          <ele>1825</ele>
          <time>2026-05-02T08:07:29Z</time>
      </trkpt>
      <trkpt lon="11.5511980057" lat="47.1517601013">
          <ele>1826</ele>
          <time>2026-05-02T08:07:35Z</time>
      </trkpt>
      <trkpt lon="11.551156044" lat="47.1516685486">
          <ele>1829</ele>
          <time>2026-05-02T08:07:40Z</time>
      </trkpt>
      <trkpt lon="11.5511054993" lat="47.1515769958">
          <ele>1833</ele>
          <time>2026-05-02T08:07:45Z</time>
      </trkpt>
      <trkpt lon="11.5510416031" lat="47.1514816284">
          <ele>1835</ele>
          <time>2026-05-02T08:07:50Z</time>
      </trkpt>
      <trkpt lon="11.5509996414" lat="47.1513786316">
          <ele>1838</ele>
          <time>2026-05-02T08:07:57Z</time>
      </trkpt>
      <trkpt lon="11.5509262085" lat="47.1512794495">
          <ele>1839</ele>
          <time>2026-05-02T08:08:03Z</time>
      </trkpt>
      <trkpt lon="11.5508050919" lat="47.1512107849">
          <ele>1837</ele>
          <time>2026-05-02T08:11:02Z</time>
      </trkpt>
      <trkpt lon="11.5507173538" lat="47.1511154175">
          <ele>1837</ele>
          <time>2026-05-02T08:11:08Z</time>
      </trkpt>
      <trkpt lon="11.5506515503" lat="47.15102005">
          <ele>1837</ele>
          <time>2026-05-02T08:11:14Z</time>
      </trkpt>
      <trkpt lon="11.5505914688" lat="47.1509132385">
          <ele>1837</ele>
          <time>2026-05-02T08:11:20Z</time>
      </trkpt>
      <trkpt lon="11.5505523682" lat="47.1508026123">
          <ele>1839</ele>
          <time>2026-05-02T08:11:26Z</time>
      </trkpt>
      <trkpt lon="11.5505247116" lat="47.1506958008">
          <ele>1840</ele>
          <time>2026-05-02T08:11:31Z</time>
      </trkpt>
      <trkpt lon="11.5504922867" lat="47.1505851746">
          <ele>1841</ele>
          <time>2026-05-02T08:11:36Z</time>
      </trkpt>
      <trkpt lon="11.5504703522" lat="47.1504745483">
          <ele>1842</ele>
          <time>2026-05-02T08:11:41Z</time>
      </trkpt>
      <trkpt lon="11.5504436493" lat="47.1503677368">
          <ele>1843</ele>
          <time>2026-05-02T08:11:46Z</time>
      </trkpt>
      <trkpt lon="11.5503911972" lat="47.15026474">
          <ele>1844</ele>
          <time>2026-05-02T08:11:51Z</time>
      </trkpt>
      <trkpt lon="11.5503635406" lat="47.1501617432">
          <ele>1846</ele>
          <time>2026-05-02T08:11:56Z</time>
      </trkpt>
      <trkpt lon="11.5503406525" lat="47.1500511169">
          <ele>1848</ele>
          <time>2026-05-02T08:12:02Z</time>
      </trkpt>
      <trkpt lon="11.5503368378" lat="47.1499481201">
          <ele>1849</ele>
          <time>2026-05-02T08:12:07Z</time>
      </trkpt>
      <trkpt lon="11.55032444" lat="47.149848938">
          <ele>1850</ele>
          <time>2026-05-02T08:12:12Z</time>
      </trkpt>
      <trkpt lon="11.5503358841" lat="47.1497497559">
          <ele>1851</ele>
          <time>2026-05-02T08:12:17Z</time>
      </trkpt>
      <trkpt lon="11.550321579" lat="47.1496505737">
          <ele>1854</ele>
          <time>2026-05-02T08:12:22Z</time>
      </trkpt>
      <trkpt lon="11.5502958298" lat="47.1495399475">
          <ele>1856</ele>
          <time>2026-05-02T08:12:28Z</time>
      </trkpt>
      <trkpt lon="11.5502624512" lat="47.1494445801">
          <ele>1858</ele>
          <time>2026-05-02T08:12:33Z</time>
      </trkpt>
      <trkpt lon="11.5502519608" lat="47.1493263245">
          <ele>1859</ele>
          <time>2026-05-02T08:12:39Z</time>
      </trkpt>
      <trkpt lon="11.5502328873" lat="47.1492195129">
          <ele>1860</ele>
          <time>2026-05-02T08:12:45Z</time>
      </trkpt>
      <trkpt lon="11.550242424" lat="47.1491127014">
          <ele>1861</ele>
          <time>2026-05-02T08:12:51Z</time>
      </trkpt>
      <trkpt lon="11.5502471924" lat="47.1490135193">
          <ele>1862</ele>
          <time>2026-05-02T08:12:56Z</time>
      </trkpt>
      <trkpt lon="11.550242424" lat="47.1488990784">
          <ele>1864</ele>
          <time>2026-05-02T08:13:02Z</time>
      </trkpt>
      <trkpt lon="11.5502243042" lat="47.1487922668">
          <ele>1866</ele>
          <time>2026-05-02T08:13:07Z</time>
      </trkpt>
      <trkpt lon="11.550198555" lat="47.1486930847">
          <ele>1868</ele>
          <time>2026-05-02T08:13:12Z</time>
      </trkpt>
      <trkpt lon="11.5501403809" lat="47.1485977173">
          <ele>1869</ele>
          <time>2026-05-02T08:13:17Z</time>
      </trkpt>
      <trkpt lon="11.5500516891" lat="47.1485176086">
          <ele>1873</ele>
          <time>2026-05-02T08:13:22Z</time>
      </trkpt>
      <trkpt lon="11.549943924" lat="47.1484451294">
          <ele>1874</ele>
          <time>2026-05-02T08:13:27Z</time>
      </trkpt>
      <trkpt lon="11.5498180389" lat="47.1483764648">
          <ele>1877</ele>
          <time>2026-05-02T08:13:32Z</time>
      </trkpt>
      <trkpt lon="11.5496912003" lat="47.1483154297">
          <ele>1878</ele>
          <time>2026-05-02T08:13:38Z</time>
      </trkpt>
      <trkpt lon="11.5495471954" lat="47.1482620239">
          <ele>1879</ele>
          <time>2026-05-02T08:13:44Z</time>
      </trkpt>
      <trkpt lon="11.5493841171" lat="47.1482467651">
          <ele>1882</ele>
          <time>2026-05-02T08:13:49Z</time>
      </trkpt>
      <trkpt lon="11.5492277145" lat="47.1482124329">
          <ele>1883</ele>
          <time>2026-05-02T08:13:55Z</time>
      </trkpt>
      <trkpt lon="11.5490760803" lat="47.1481895447">
          <ele>1885</ele>
          <time>2026-05-02T08:14:00Z</time>
      </trkpt>
      <trkpt lon="11.5489330292" lat="47.1481742859">
          <ele>1887</ele>
          <time>2026-05-02T08:14:04Z</time>
      </trkpt>
      <trkpt lon="11.5487861633" lat="47.1481704712">
          <ele>1889</ele>
          <time>2026-05-02T08:14:08Z</time>
      </trkpt>
      <trkpt lon="11.5486125946" lat="47.1481781006">
          <ele>1890</ele>
          <time>2026-05-02T08:14:13Z</time>
      </trkpt>
      <trkpt lon="11.5484390259" lat="47.1481895447">
          <ele>1890</ele>
          <time>2026-05-02T08:14:18Z</time>
      </trkpt>
      <trkpt lon="11.5483026505" lat="47.1482276917">
          <ele>1892</ele>
          <time>2026-05-02T08:14:22Z</time>
      </trkpt>
      <trkpt lon="11.5481567383" lat="47.1482543945">
          <ele>1893</ele>
          <time>2026-05-02T08:14:26Z</time>
      </trkpt>
      <trkpt lon="11.5480012894" lat="47.1482810974">
          <ele>1895</ele>
          <time>2026-05-02T08:14:31Z</time>
      </trkpt>
      <trkpt lon="11.5478429794" lat="47.1483078003">
          <ele>1896</ele>
          <time>2026-05-02T08:14:36Z</time>
      </trkpt>
      <trkpt lon="11.5476884842" lat="47.1483306885">
          <ele>1897</ele>
          <time>2026-05-02T08:14:41Z</time>
      </trkpt>
      <trkpt lon="11.5475349426" lat="47.1483230591">
          <ele>1897</ele>
          <time>2026-05-02T08:14:46Z</time>
      </trkpt>
      <trkpt lon="11.5473823547" lat="47.1483154297">
          <ele>1898</ele>
          <time>2026-05-02T08:14:51Z</time>
      </trkpt>
      <trkpt lon="11.5472211838" lat="47.1483001709">
          <ele>1899</ele>
          <time>2026-05-02T08:14:56Z</time>
      </trkpt>
      <trkpt lon="11.5470762253" lat="47.1482772827">
          <ele>1899</ele>
          <time>2026-05-02T08:15:00Z</time>
      </trkpt>
      <trkpt lon="11.5469331741" lat="47.1482086182">
          <ele>1899</ele>
          <time>2026-05-02T08:15:05Z</time>
      </trkpt>
      <trkpt lon="11.5468006134" lat="47.1481590271">
          <ele>1899</ele>
          <time>2026-05-02T08:15:09Z</time>
      </trkpt>
      <trkpt lon="11.5466337204" lat="47.1481170654">
          <ele>1899</ele>
          <time>2026-05-02T08:15:13Z</time>
      </trkpt>
      <trkpt lon="11.5464706421" lat="47.1480827332">
          <ele>1901</ele>
          <time>2026-05-02T08:15:17Z</time>
      </trkpt>
      <trkpt lon="11.5463075638" lat="47.1480484009">
          <ele>1904</ele>
          <time>2026-05-02T08:15:22Z</time>
      </trkpt>
      <trkpt lon="11.5461578369" lat="47.1480331421">
          <ele>1907</ele>
          <time>2026-05-02T08:15:26Z</time>
      </trkpt>
      <trkpt lon="11.5460176468" lat="47.1479949951">
          <ele>1909</ele>
          <time>2026-05-02T08:15:30Z</time>
      </trkpt>
      <trkpt lon="11.5458841324" lat="47.1479187012">
          <ele>1909</ele>
          <time>2026-05-02T08:15:36Z</time>
      </trkpt>
      <trkpt lon="11.545791626" lat="47.1480140686">
          <ele>1909</ele>
          <time>2026-05-02T08:15:42Z</time>
      </trkpt>
      <trkpt lon="11.5458545685" lat="47.1481056213">
          <ele>1910</ele>
          <time>2026-05-02T08:15:46Z</time>
      </trkpt>
      <trkpt lon="11.5459260941" lat="47.1481895447">
          <ele>1913</ele>
          <time>2026-05-02T08:15:51Z</time>
      </trkpt>
      <trkpt lon="11.5460481644" lat="47.1482582092">
          <ele>1916</ele>
          <time>2026-05-02T08:15:57Z</time>
      </trkpt>
      <trkpt lon="11.5461778641" lat="47.1483154297">
          <ele>1917</ele>
          <time>2026-05-02T08:16:03Z</time>
      </trkpt>
      <trkpt lon="11.5463104248" lat="47.1483573914">
          <ele>1919</ele>
          <time>2026-05-02T08:16:09Z</time>
      </trkpt>
      <trkpt lon="11.5462989807" lat="47.1484565735">
          <ele>1922</ele>
          <time>2026-05-02T08:16:15Z</time>
      </trkpt>
      <trkpt lon="11.5461530685" lat="47.1484794617">
          <ele>1924</ele>
          <time>2026-05-02T08:16:21Z</time>
      </trkpt>
      <trkpt lon="11.5460033417" lat="47.1484603882">
          <ele>1924</ele>
          <time>2026-05-02T08:16:27Z</time>
      </trkpt>
      <trkpt lon="11.5458498001" lat="47.1484603882">
          <ele>1924</ele>
          <time>2026-05-02T08:16:33Z</time>
      </trkpt>
      <trkpt lon="11.5456972122" lat="47.1484413147">
          <ele>1923</ele>
          <time>2026-05-02T08:17:33Z</time>
      </trkpt>
      <trkpt lon="11.5455589294" lat="47.1484107971">
          <ele>1924</ele>
          <time>2026-05-02T08:17:37Z</time>
      </trkpt>
      <trkpt lon="11.5454483032" lat="47.1483421326">
          <ele>1925</ele>
          <time>2026-05-02T08:17:42Z</time>
      </trkpt>
      <trkpt lon="11.545378685" lat="47.1482467651">
          <ele>1926</ele>
          <time>2026-05-02T08:17:46Z</time>
      </trkpt>
      <trkpt lon="11.5453128815" lat="47.1481399536">
          <ele>1928</ele>
          <time>2026-05-02T08:17:51Z</time>
      </trkpt>
      <trkpt lon="11.5452604294" lat="47.1480484009">
          <ele>1930</ele>
          <time>2026-05-02T08:17:56Z</time>
      </trkpt>
      <trkpt lon="11.5451641083" lat="47.1479721069">
          <ele>1931</ele>
          <time>2026-05-02T08:18:01Z</time>
      </trkpt>
      <trkpt lon="11.5450162888" lat="47.1479225159">
          <ele>1933</ele>
          <time>2026-05-02T08:18:07Z</time>
      </trkpt>
      <trkpt lon="11.544875145" lat="47.1478996277">
          <ele>1934</ele>
          <time>2026-05-02T08:18:12Z</time>
      </trkpt>
      <trkpt lon="11.5447206497" lat="47.147857666">
          <ele>1935</ele>
          <time>2026-05-02T08:18:18Z</time>
      </trkpt>
      <trkpt lon="11.5445737839" lat="47.1478424072">
          <ele>1939</ele>
          <time>2026-05-02T08:18:24Z</time>
      </trkpt>
      <trkpt lon="11.5444078445" lat="47.1478805542">
          <ele>1942</ele>
          <time>2026-05-02T08:18:30Z</time>
      </trkpt>
      <trkpt lon="11.5442647934" lat="47.1478996277">
          <ele>1944</ele>
          <time>2026-05-02T08:18:35Z</time>
      </trkpt>
      <trkpt lon="11.5441160202" lat="47.1479034424">
          <ele>1945</ele>
          <time>2026-05-02T08:18:41Z</time>
      </trkpt>
      <trkpt lon="11.5440206528" lat="47.147983551">
          <ele>1947</ele>
          <time>2026-05-02T08:18:46Z</time>
      </trkpt>
      <trkpt lon="11.5441331863" lat="47.1480484009">
          <ele>1950</ele>
          <time>2026-05-02T08:18:53Z</time>
      </trkpt>
      <trkpt lon="11.5442800522" lat="47.1481018066">
          <ele>1950</ele>
          <time>2026-05-02T08:18:59Z</time>
      </trkpt>
      <trkpt lon="11.5444002151" lat="47.1481704712">
          <ele>1951</ele>
          <time>2026-05-02T08:19:05Z</time>
      </trkpt>
      <trkpt lon="11.544508934" lat="47.1482543945">
          <ele>1952</ele>
          <time>2026-05-02T08:19:11Z</time>
      </trkpt>
      <trkpt lon="11.5445899963" lat="47.1483535767">
          <ele>1954</ele>
          <time>2026-05-02T08:19:17Z</time>
      </trkpt>
      <trkpt lon="11.5446510315" lat="47.1484527588">
          <ele>1958</ele>
          <time>2026-05-02T08:19:23Z</time>
      </trkpt>
      <trkpt lon="11.544678688" lat="47.148563385">
          <ele>1960</ele>
          <time>2026-05-02T08:19:29Z</time>
      </trkpt>
      <trkpt lon="11.5447282791" lat="47.1486587524">
          <ele>1961</ele>
          <time>2026-05-02T08:19:34Z</time>
      </trkpt>
      <trkpt lon="11.5448246002" lat="47.1487541199">
          <ele>1962</ele>
          <time>2026-05-02T08:19:40Z</time>
      </trkpt>
      <trkpt lon="11.5448083878" lat="47.1488571167">
          <ele>1963</ele>
          <time>2026-05-02T08:19:46Z</time>
      </trkpt>
      <trkpt lon="11.5446481705" lat="47.1488189697">
          <ele>1964</ele>
          <time>2026-05-02T08:19:52Z</time>
      </trkpt>
      <trkpt lon="11.5445356369" lat="47.1487388611">
          <ele>1965</ele>
          <time>2026-05-02T08:19:57Z</time>
      </trkpt>
      <trkpt lon="11.5444097519" lat="47.1486663818">
          <ele>1966</ele>
          <time>2026-05-02T08:20:03Z</time>
      </trkpt>
      <trkpt lon="11.5442991257" lat="47.1485862732">
          <ele>1967</ele>
          <time>2026-05-02T08:20:10Z</time>
      </trkpt>
      <trkpt lon="11.5441532135" lat="47.1485404968">
          <ele>1969</ele>
          <time>2026-05-02T08:20:16Z</time>
      </trkpt>
      <trkpt lon="11.5439920425" lat="47.1485176086">
          <ele>1971</ele>
          <time>2026-05-02T08:20:22Z</time>
      </trkpt>
      <trkpt lon="11.5438251495" lat="47.1485099792">
          <ele>1971</ele>
          <time>2026-05-02T08:20:28Z</time>
      </trkpt>
      <trkpt lon="11.5436868668" lat="47.1484489441">
          <ele>1973</ele>
          <time>2026-05-02T08:20:34Z</time>
      </trkpt>
      <trkpt lon="11.5435848236" lat="47.1483726501">
          <ele>1975</ele>
          <time>2026-05-02T08:20:40Z</time>
      </trkpt>
      <trkpt lon="11.5434436798" lat="47.1483306885">
          <ele>1978</ele>
          <time>2026-05-02T08:20:47Z</time>
      </trkpt>
      <trkpt lon="11.5433044434" lat="47.1483421326">
          <ele>1981</ele>
          <time>2026-05-02T08:20:54Z</time>
      </trkpt>
      <trkpt lon="11.5431747437" lat="47.1483879089">
          <ele>1983</ele>
          <time>2026-05-02T08:21:00Z</time>
      </trkpt>
      <trkpt lon="11.5430583954" lat="47.1484565735">
          <ele>1985</ele>
          <time>2026-05-02T08:21:06Z</time>
      </trkpt>
      <trkpt lon="11.5428934097" lat="47.1484527588">
          <ele>1987</ele>
          <time>2026-05-02T08:21:12Z</time>
      </trkpt>
      <trkpt lon="11.542755127" lat="47.1484031677">
          <ele>1988</ele>
          <time>2026-05-02T08:21:17Z</time>
      </trkpt>
      <trkpt lon="11.5426578522" lat="47.148311615">
          <ele>1989</ele>
          <time>2026-05-02T08:21:24Z</time>
      </trkpt>
      <trkpt lon="11.5425443649" lat="47.148235321">
          <ele>1991</ele>
          <time>2026-05-02T08:21:31Z</time>
      </trkpt>
      <trkpt lon="11.5424146652" lat="47.1482696533">
          <ele>1995</ele>
          <time>2026-05-02T08:21:38Z</time>
      </trkpt>
      <trkpt lon="11.5424900055" lat="47.1483650208">
          <ele>1996</ele>
          <time>2026-05-02T08:21:43Z</time>
      </trkpt>
      <trkpt lon="11.5425834656" lat="47.1484527588">
          <ele>1999</ele>
          <time>2026-05-02T08:21:50Z</time>
      </trkpt>
      <trkpt lon="11.5426368713" lat="47.1485481262">
          <ele>2000</ele>
          <time>2026-05-02T08:21:55Z</time>
      </trkpt>
      <trkpt lon="11.5426855087" lat="47.1486434937">
          <ele>2001</ele>
          <time>2026-05-02T08:22:00Z</time>
      </trkpt>
      <trkpt lon="11.5427522659" lat="47.1487350464">
          <ele>2002</ele>
          <time>2026-05-02T08:22:05Z</time>
      </trkpt>
      <trkpt lon="11.5428409576" lat="47.1488265991">
          <ele>2004</ele>
          <time>2026-05-02T08:22:10Z</time>
      </trkpt>
      <trkpt lon="11.5429706573" lat="47.1488990784">
          <ele>2005</ele>
          <time>2026-05-02T08:22:16Z</time>
      </trkpt>
      <trkpt lon="11.5430879593" lat="47.1489639282">
          <ele>2006</ele>
          <time>2026-05-02T08:22:22Z</time>
      </trkpt>
      <trkpt lon="11.54322052" lat="47.1490325928">
          <ele>2007</ele>
          <time>2026-05-02T08:22:29Z</time>
      </trkpt>
      <trkpt lon="11.5433111191" lat="47.1491241455">
          <ele>2009</ele>
          <time>2026-05-02T08:22:35Z</time>
      </trkpt>
      <trkpt lon="11.5433359146" lat="47.149230957">
          <ele>2011</ele>
          <time>2026-05-02T08:22:41Z</time>
      </trkpt>
      <trkpt lon="11.543419838" lat="47.1493225098">
          <ele>2013</ele>
          <time>2026-05-02T08:22:47Z</time>
      </trkpt>
      <trkpt lon="11.5435342789" lat="47.1493911743">
          <ele>2015</ele>
          <time>2026-05-02T08:22:53Z</time>
      </trkpt>
      <trkpt lon="11.5436658859" lat="47.1494483948">
          <ele>2016</ele>
          <time>2026-05-02T08:22:59Z</time>
      </trkpt>
      <trkpt lon="11.5438241959" lat="47.1494750977">
          <ele>2018</ele>
          <time>2026-05-02T08:23:05Z</time>
      </trkpt>
      <trkpt lon="11.5439805984" lat="47.149471283">
          <ele>2020</ele>
          <time>2026-05-02T08:23:11Z</time>
      </trkpt>
      <trkpt lon="11.544128418" lat="47.1494903564">
          <ele>2023</ele>
          <time>2026-05-02T08:23:16Z</time>
      </trkpt>
      <trkpt lon="11.5442523956" lat="47.1495437622">
          <ele>2025</ele>
          <time>2026-05-02T08:23:21Z</time>
      </trkpt>
      <trkpt lon="11.5443639755" lat="47.1496047974">
          <ele>2027</ele>
          <time>2026-05-02T08:23:26Z</time>
      </trkpt>
      <trkpt lon="11.5444459915" lat="47.1497077942">
          <ele>2029</ele>
          <time>2026-05-02T08:23:32Z</time>
      </trkpt>
      <trkpt lon="11.5445013046" lat="47.1497993469">
          <ele>2030</ele>
          <time>2026-05-02T08:23:37Z</time>
      </trkpt>
      <trkpt lon="11.5445165634" lat="47.1499061584">
          <ele>2031</ele>
          <time>2026-05-02T08:23:43Z</time>
      </trkpt>
      <trkpt lon="11.5446395874" lat="47.1499786377">
          <ele>2031</ele>
          <time>2026-05-02T08:23:50Z</time>
      </trkpt>
      <trkpt lon="11.5448064804" lat="47.1499900818">
          <ele>2034</ele>
          <time>2026-05-02T08:23:56Z</time>
      </trkpt>
      <trkpt lon="11.544968605" lat="47.1500015259">
          <ele>2036</ele>
          <time>2026-05-02T08:24:02Z</time>
      </trkpt>
      <trkpt lon="11.545091629" lat="47.1500015259">
          <ele>2042</ele>
          <time>2026-05-02T08:24:43Z</time>
      </trkpt>
      <trkpt lon="11.5452413559" lat="47.1500015259">
          <ele>2042</ele>
          <time>2026-05-02T08:24:53Z</time>
      </trkpt>
      <trkpt lon="11.5453891754" lat="47.15001297">
          <ele>2043</ele>
          <time>2026-05-02T08:24:59Z</time>
      </trkpt>
      <trkpt lon="11.5455560684" lat="47.1500091553">
          <ele>2043</ele>
          <time>2026-05-02T08:25:04Z</time>
      </trkpt>
      <trkpt lon="11.54570961" lat="47.1500053406">
          <ele>2043</ele>
          <time>2026-05-02T08:25:08Z</time>
      </trkpt>
      <trkpt lon="11.5458593369" lat="47.1499938965">
          <ele>2043</ele>
          <time>2026-05-02T08:25:12Z</time>
      </trkpt>
      <trkpt lon="11.5460186005" lat="47.1499519348">
          <ele>2044</ele>
          <time>2026-05-02T08:25:16Z</time>
      </trkpt>
      <trkpt lon="11.5461788177" lat="47.1499710083">
          <ele>2046</ele>
          <time>2026-05-02T08:25:21Z</time>
      </trkpt>
      <trkpt lon="11.5463056564" lat="47.1500358582">
          <ele>2047</ele>
          <time>2026-05-02T08:25:26Z</time>
      </trkpt>
      <trkpt lon="11.5464220047" lat="47.1501274109">
          <ele>2048</ele>
          <time>2026-05-02T08:25:31Z</time>
      </trkpt>
      <trkpt lon="11.5465183258" lat="47.150226593">
          <ele>2049</ele>
          <time>2026-05-02T08:25:36Z</time>
      </trkpt>
      <trkpt lon="11.5465946198" lat="47.1503295898">
          <ele>2049</ele>
          <time>2026-05-02T08:25:41Z</time>
      </trkpt>
      <trkpt lon="11.5466823578" lat="47.1504364014">
          <ele>2049</ele>
          <time>2026-05-02T08:25:46Z</time>
      </trkpt>
      <trkpt lon="11.5467567444" lat="47.1505393982">
          <ele>2050</ele>
          <time>2026-05-02T08:25:51Z</time>
      </trkpt>
      <trkpt lon="11.5468454361" lat="47.150642395">
          <ele>2052</ele>
          <time>2026-05-02T08:25:56Z</time>
      </trkpt>
      <trkpt lon="11.5469102859" lat="47.1507492065">
          <ele>2053</ele>
          <time>2026-05-02T08:26:01Z</time>
      </trkpt>
      <trkpt lon="11.5469388962" lat="47.1508674622">
          <ele>2054</ele>
          <time>2026-05-02T08:26:06Z</time>
      </trkpt>
      <trkpt lon="11.5469312668" lat="47.1509819031">
          <ele>2055</ele>
          <time>2026-05-02T08:26:10Z</time>
      </trkpt>
      <trkpt lon="11.5469150543" lat="47.151096344">
          <ele>2056</ele>
          <time>2026-05-02T08:26:14Z</time>
      </trkpt>
      <trkpt lon="11.5469350815" lat="47.1511993408">
          <ele>2057</ele>
          <time>2026-05-02T08:26:18Z</time>
      </trkpt>
      <trkpt lon="11.5469398499" lat="47.1513023376">
          <ele>2058</ele>
          <time>2026-05-02T08:26:22Z</time>
      </trkpt>
      <trkpt lon="11.5469589233" lat="47.1514015198">
          <ele>2059</ele>
          <time>2026-05-02T08:26:26Z</time>
      </trkpt>
      <trkpt lon="11.5469818115" lat="47.1515045166">
          <ele>2059</ele>
          <time>2026-05-02T08:26:30Z</time>
      </trkpt>
      <trkpt lon="11.5470218658" lat="47.1516151428">
          <ele>2061</ele>
          <time>2026-05-02T08:26:35Z</time>
      </trkpt>
      <trkpt lon="11.5470237732" lat="47.151725769">
          <ele>2062</ele>
          <time>2026-05-02T08:26:40Z</time>
      </trkpt>
      <trkpt lon="11.5469875336" lat="47.1518325806">
          <ele>2064</ele>
          <time>2026-05-02T08:26:45Z</time>
      </trkpt>
      <trkpt lon="11.5469369888" lat="47.1519470215">
          <ele>2065</ele>
          <time>2026-05-02T08:26:50Z</time>
      </trkpt>
      <trkpt lon="11.5468988419" lat="47.1520652771">
          <ele>2066</ele>
          <time>2026-05-02T08:26:55Z</time>
      </trkpt>
      <trkpt lon="11.5468530655" lat="47.1521759033">
          <ele>2067</ele>
          <time>2026-05-02T08:27:00Z</time>
      </trkpt>
      <trkpt lon="11.5468006134" lat="47.1522865295">
          <ele>2068</ele>
          <time>2026-05-02T08:27:05Z</time>
      </trkpt>
      <trkpt lon="11.546749115" lat="47.1523857117">
          <ele>2069</ele>
          <time>2026-05-02T08:27:10Z</time>
      </trkpt>
      <trkpt lon="11.5466899872" lat="47.1524925232">
          <ele>2070</ele>
          <time>2026-05-02T08:27:15Z</time>
      </trkpt>
      <trkpt lon="11.5465965271" lat="47.15259552">
          <ele>2072</ele>
          <time>2026-05-02T08:27:20Z</time>
      </trkpt>
      <trkpt lon="11.5465583801" lat="47.1526985168">
          <ele>2074</ele>
          <time>2026-05-02T08:27:25Z</time>
      </trkpt>
      <trkpt lon="11.5465364456" lat="47.1528053284">
          <ele>2075</ele>
          <time>2026-05-02T08:27:30Z</time>
      </trkpt>
      <trkpt lon="11.5464696884" lat="47.152961731">
          <ele>2079</ele>
          <time>2026-05-02T08:27:58Z</time>
      </trkpt>
      <trkpt lon="11.5464096069" lat="47.1530570984">
          <ele>2079</ele>
          <time>2026-05-02T08:28:14Z</time>
      </trkpt>
      <trkpt lon="11.5463275909" lat="47.1531486511">
          <ele>2078</ele>
          <time>2026-05-02T08:28:29Z</time>
      </trkpt>
      <trkpt lon="11.5462436676" lat="47.1532325745">
          <ele>2078</ele>
          <time>2026-05-02T08:28:39Z</time>
      </trkpt>
      <trkpt lon="11.546163559" lat="47.1533164978">
          <ele>2078</ele>
          <time>2026-05-02T08:28:51Z</time>
      </trkpt>
      <trkpt lon="11.5460548401" lat="47.1534080505">
          <ele>2079</ele>
          <time>2026-05-02T08:29:09Z</time>
      </trkpt>
      <trkpt lon="11.5459222794" lat="47.1534614563">
          <ele>2079</ele>
          <time>2026-05-02T08:29:15Z</time>
      </trkpt>
      <trkpt lon="11.5457630157" lat="47.1534919739">
          <ele>2078</ele>
          <time>2026-05-02T08:29:21Z</time>
      </trkpt>
      <trkpt lon="11.5456237793" lat="47.1535491943">
          <ele>2078</ele>
          <time>2026-05-02T08:29:26Z</time>
      </trkpt>
      <trkpt lon="11.5455112457" lat="47.153629303">
          <ele>2077</ele>
          <time>2026-05-02T08:29:31Z</time>
      </trkpt>
      <trkpt lon="11.5454540253" lat="47.1537246704">
          <ele>2076</ele>
          <time>2026-05-02T08:29:36Z</time>
      </trkpt>
      <trkpt lon="11.5454187393" lat="47.1538238525">
          <ele>2076</ele>
          <time>2026-05-02T08:29:41Z</time>
      </trkpt>
      <trkpt lon="11.5453538895" lat="47.1539230347">
          <ele>2076</ele>
          <time>2026-05-02T08:29:47Z</time>
      </trkpt>
      <trkpt lon="11.5453090668" lat="47.1540298462">
          <ele>2075</ele>
          <time>2026-05-02T08:29:52Z</time>
      </trkpt>
      <trkpt lon="11.5452394485" lat="47.1541252136">
          <ele>2075</ele>
          <time>2026-05-02T08:29:56Z</time>
      </trkpt>
      <trkpt lon="11.5451698303" lat="47.1542320251">
          <ele>2074</ele>
          <time>2026-05-02T08:30:01Z</time>
      </trkpt>
      <trkpt lon="11.5450677872" lat="47.1543273926">
          <ele>2074</ele>
          <time>2026-05-02T08:30:06Z</time>
      </trkpt>
      <trkpt lon="11.5449533463" lat="47.1544113159">
          <ele>2074</ele>
          <time>2026-05-02T08:30:12Z</time>
      </trkpt>
      <trkpt lon="11.5448360443" lat="47.154499054">
          <ele>2074</ele>
          <time>2026-05-02T08:30:17Z</time>
      </trkpt>
      <trkpt lon="11.5447235107" lat="47.1545944214">
          <ele>2074</ele>
          <time>2026-05-02T08:30:22Z</time>
      </trkpt>
      <trkpt lon="11.5446109772" lat="47.1546821594">
          <ele>2075</ele>
          <time>2026-05-02T08:30:27Z</time>
      </trkpt>
      <trkpt lon="11.5445156097" lat="47.1547813416">
          <ele>2077</ele>
          <time>2026-05-02T08:30:33Z</time>
      </trkpt>
      <trkpt lon="11.5444316864" lat="47.1548652649">
          <ele>2079</ele>
          <time>2026-05-02T08:31:10Z</time>
      </trkpt>
      <trkpt lon="11.5443630219" lat="47.1549530029">
          <ele>2079</ele>
          <time>2026-05-02T08:31:16Z</time>
      </trkpt>
      <trkpt lon="11.5442914963" lat="47.1550445557">
          <ele>2080</ele>
          <time>2026-05-02T08:31:22Z</time>
      </trkpt>
      <trkpt lon="11.5441999435" lat="47.1551399231">
          <ele>2081</ele>
          <time>2026-05-02T08:31:28Z</time>
      </trkpt>
      <trkpt lon="11.5441131592" lat="47.1552238464">
          <ele>2082</ele>
          <time>2026-05-02T08:31:34Z</time>
      </trkpt>
      <trkpt lon="11.5440635681" lat="47.1553230286">
          <ele>2083</ele>
          <time>2026-05-02T08:31:40Z</time>
      </trkpt>
      <trkpt lon="11.5439844131" lat="47.1554260254">
          <ele>2085</ele>
          <time>2026-05-02T08:31:46Z</time>
      </trkpt>
      <trkpt lon="11.5439090729" lat="47.1555213928">
          <ele>2086</ele>
          <time>2026-05-02T08:31:52Z</time>
      </trkpt>
      <trkpt lon="11.5439424515" lat="47.1556282043">
          <ele>2088</ele>
          <time>2026-05-02T08:31:58Z</time>
      </trkpt>
      <trkpt lon="11.5440235138" lat="47.1557235718">
          <ele>2089</ele>
          <time>2026-05-02T08:32:04Z</time>
      </trkpt>
      <trkpt lon="11.5440559387" lat="47.1558227539">
          <ele>2092</ele>
          <time>2026-05-02T08:32:10Z</time>
      </trkpt>
      <trkpt lon="11.5440273285" lat="47.155921936">
          <ele>2093</ele>
          <time>2026-05-02T08:32:21Z</time>
      </trkpt>
      <trkpt lon="11.5439338684" lat="47.15599823">
          <ele>2091</ele>
          <time>2026-05-02T08:32:44Z</time>
      </trkpt>
      <trkpt lon="11.5438938141" lat="47.1560935974">
          <ele>2092</ele>
          <time>2026-05-02T08:33:02Z</time>
      </trkpt>
      <trkpt lon="11.5437908173" lat="47.1561698914">
          <ele>2092</ele>
          <time>2026-05-02T08:34:26Z</time>
      </trkpt>
      <trkpt lon="11.5436429977" lat="47.1561813354">
          <ele>2093</ele>
          <time>2026-05-02T08:34:41Z</time>
      </trkpt>
      <trkpt lon="11.5434808731" lat="47.1561965942">
          <ele>2094</ele>
          <time>2026-05-02T08:35:00Z</time>
      </trkpt>
      <trkpt lon="11.5433330536" lat="47.1562080383">
          <ele>2096</ele>
          <time>2026-05-02T08:35:16Z</time>
      </trkpt>
      <trkpt lon="11.5431871414" lat="47.1562271118">
          <ele>2098</ele>
          <time>2026-05-02T08:35:34Z</time>
      </trkpt>
      <trkpt lon="11.5430393219" lat="47.1562347412">
          <ele>2099</ele>
          <time>2026-05-02T08:35:52Z</time>
      </trkpt>
      <trkpt lon="11.5429811478" lat="47.1561546326">
          <ele>2104</ele>
          <time>2026-05-02T08:37:32Z</time>
      </trkpt>
      <trkpt lon="11.5429773331" lat="47.1560516357">
          <ele>2106</ele>
          <time>2026-05-02T08:37:50Z</time>
      </trkpt>
      <trkpt lon="11.5430107117" lat="47.1559562683">
          <ele>2104</ele>
          <time>2026-05-02T08:38:04Z</time>
      </trkpt>
      <trkpt lon="11.5430583954" lat="47.1558609009">
          <ele>2104</ele>
          <time>2026-05-02T08:38:18Z</time>
      </trkpt>
      <trkpt lon="11.5431156158" lat="47.1557693481">
          <ele>2104</ele>
          <time>2026-05-02T08:38:36Z</time>
      </trkpt>
      <trkpt lon="11.5432033539" lat="47.1556854248">
          <ele>2104</ele>
          <time>2026-05-02T08:38:50Z</time>
      </trkpt>
      <trkpt lon="11.5432815552" lat="47.1555900574">
          <ele>2105</ele>
          <time>2026-05-02T08:39:07Z</time>
      </trkpt>
      <trkpt lon="11.5433502197" lat="47.1554985046">
          <ele>2105</ele>
          <time>2026-05-02T08:39:22Z</time>
      </trkpt>
      <trkpt lon="11.5433921814" lat="47.1553993225">
          <ele>2108</ele>
          <time>2026-05-02T08:39:55Z</time>
      </trkpt>
      <trkpt lon="11.5434513092" lat="47.1553001404">
          <ele>2110</ele>
          <time>2026-05-02T08:40:30Z</time>
      </trkpt>
      <trkpt lon="11.5434885025" lat="47.1551971436">
          <ele>2111</ele>
          <time>2026-05-02T08:40:46Z</time>
      </trkpt>
      <trkpt lon="11.5435276031" lat="47.1551055908">
          <ele>2114</ele>
          <time>2026-05-02T08:41:04Z</time>
      </trkpt>
      <trkpt lon="11.5435094833" lat="47.1550064087">
          <ele>2117</ele>
          <time>2026-05-02T08:41:29Z</time>
      </trkpt>
      <trkpt lon="11.5434732437" lat="47.1549072266">
          <ele>2117</ele>
          <time>2026-05-02T08:41:35Z</time>
      </trkpt>
      <trkpt lon="11.5435009003" lat="47.154800415">
          <ele>2119</ele>
          <time>2026-05-02T08:41:42Z</time>
      </trkpt>
      <trkpt lon="11.5435190201" lat="47.1547012329">
          <ele>2120</ele>
          <time>2026-05-02T08:41:48Z</time>
      </trkpt>
      <trkpt lon="11.543513298" lat="47.1545982361">
          <ele>2122</ele>
          <time>2026-05-02T08:41:54Z</time>
      </trkpt>
      <trkpt lon="11.5435018539" lat="47.154499054">
          <ele>2123</ele>
          <time>2026-05-02T08:42:00Z</time>
      </trkpt>
      <trkpt lon="11.5434904099" lat="47.1543960571">
          <ele>2127</ele>
          <time>2026-05-02T08:43:13Z</time>
      </trkpt>
      <trkpt lon="11.5434608459" lat="47.154296875">
          <ele>2128</ele>
          <time>2026-05-02T08:43:20Z</time>
      </trkpt>
      <trkpt lon="11.5434465408" lat="47.1541900635">
          <ele>2129</ele>
          <time>2026-05-02T08:43:27Z</time>
      </trkpt>
      <trkpt lon="11.5434360504" lat="47.1540908813">
          <ele>2131</ele>
          <time>2026-05-02T08:43:41Z</time>
      </trkpt>
      <trkpt lon="11.5433549881" lat="47.1539955139">
          <ele>2132</ele>
          <time>2026-05-02T08:43:48Z</time>
      </trkpt>
      <trkpt lon="11.5432605743" lat="47.1539154053">
          <ele>2132</ele>
          <time>2026-05-02T08:43:54Z</time>
      </trkpt>
      <trkpt lon="11.5432004929" lat="47.1538238525">
          <ele>2133</ele>
          <time>2026-05-02T08:44:00Z</time>
      </trkpt>
      <trkpt lon="11.5431470871" lat="47.1537284851">
          <ele>2134</ele>
          <time>2026-05-02T08:44:06Z</time>
      </trkpt>
      <trkpt lon="11.5430955887" lat="47.1536445618">
          <ele>2139</ele>
          <time>2026-05-02T08:44:42Z</time>
      </trkpt>
      <trkpt lon="11.5430688858" lat="47.1535453796">
          <ele>2138</ele>
          <time>2026-05-02T08:45:00Z</time>
      </trkpt>
      <trkpt lon="11.5430498123" lat="47.1534461975">
          <ele>2139</ele>
          <time>2026-05-02T08:45:28Z</time>
      </trkpt>
      <trkpt lon="11.5430335999" lat="47.153339386">
          <ele>2141</ele>
          <time>2026-05-02T08:46:01Z</time>
      </trkpt>
      <trkpt lon="11.5430736542" lat="47.1532440186">
          <ele>2141</ele>
          <time>2026-05-02T08:46:17Z</time>
      </trkpt>
      <trkpt lon="11.5430641174" lat="47.1531448364">
          <ele>2143</ele>
          <time>2026-05-02T08:46:34Z</time>
      </trkpt>
      <trkpt lon="11.5430259705" lat="47.153049469">
          <ele>2145</ele>
          <time>2026-05-02T08:46:52Z</time>
      </trkpt>
      <trkpt lon="11.5429353714" lat="47.1529693604">
          <ele>2145</ele>
          <time>2026-05-02T08:47:24Z</time>
      </trkpt>
      <trkpt lon="11.5428133011" lat="47.1529159546">
          <ele>2146</ele>
          <time>2026-05-02T08:47:58Z</time>
      </trkpt>
      <trkpt lon="11.5427408218" lat="47.1528282166">
          <ele>2146</ele>
          <time>2026-05-02T08:48:18Z</time>
      </trkpt>
      <trkpt lon="11.5427055359" lat="47.1527366638">
          <ele>2150</ele>
          <time>2026-05-02T08:48:36Z</time>
      </trkpt>
      <trkpt lon="11.5426855087" lat="47.1526374817">
          <ele>2152</ele>
          <time>2026-05-02T08:48:58Z</time>
      </trkpt>
      <trkpt lon="11.5426673889" lat="47.1525382996">
          <ele>2151</ele>
          <time>2026-05-02T08:49:14Z</time>
      </trkpt>
      <trkpt lon="11.5426454544" lat="47.1524391174">
          <ele>2152</ele>
          <time>2026-05-02T08:49:29Z</time>
      </trkpt>
      <trkpt lon="11.5426263809" lat="47.1523361206">
          <ele>2153</ele>
          <time>2026-05-02T08:49:44Z</time>
      </trkpt>
      <trkpt lon="11.5425901413" lat="47.1522369385">
          <ele>2156</ele>
          <time>2026-05-02T08:50:08Z</time>
      </trkpt>
      <trkpt lon="11.5426015854" lat="47.1521377563">
          <ele>2158</ele>
          <time>2026-05-02T08:50:29Z</time>
      </trkpt>
      <trkpt lon="11.5426149368" lat="47.1520347595">
          <ele>2155</ele>
          <time>2026-05-02T09:09:55Z</time>
      </trkpt>
      <trkpt lon="11.5426635742" lat="47.1519317627">
          <ele>2154</ele>
          <time>2026-05-02T09:10:29Z</time>
      </trkpt>
      <trkpt lon="11.542719841" lat="47.1518363953">
          <ele>2152</ele>
          <time>2026-05-02T09:10:45Z</time>
      </trkpt>
      <trkpt lon="11.5426998138" lat="47.1517372131">
          <ele>2152</ele>
          <time>2026-05-02T09:11:19Z</time>
      </trkpt>
      <trkpt lon="11.5427846909" lat="47.1516532898">
          <ele>2151</ele>
          <time>2026-05-02T09:11:35Z</time>
      </trkpt>
      <trkpt lon="11.54292202" lat="47.1516075134">
          <ele>2148</ele>
          <time>2026-05-02T09:11:55Z</time>
      </trkpt>
      <trkpt lon="11.5431013107" lat="47.1515769958">
          <ele>2147</ele>
          <time>2026-05-02T09:12:09Z</time>
      </trkpt>
      <trkpt lon="11.5432739258" lat="47.1515655518">
          <ele>2145</ele>
          <time>2026-05-02T09:12:15Z</time>
      </trkpt>
      <trkpt lon="11.5434274673" lat="47.1515769958">
          <ele>2144</ele>
          <time>2026-05-02T09:12:21Z</time>
      </trkpt>
      <trkpt lon="11.5435676575" lat="47.1515579224">
          <ele>2141</ele>
          <time>2026-05-02T09:12:34Z</time>
      </trkpt>
      <trkpt lon="11.5437173843" lat="47.1515464783">
          <ele>2139</ele>
          <time>2026-05-02T09:13:04Z</time>
      </trkpt>
      <trkpt lon="11.543879509" lat="47.1515274048">
          <ele>2138</ele>
          <time>2026-05-02T09:13:09Z</time>
      </trkpt>
      <trkpt lon="11.5440263748" lat="47.151512146">
          <ele>2136</ele>
          <time>2026-05-02T09:13:13Z</time>
      </trkpt>
      <trkpt lon="11.5441923141" lat="47.151512146">
          <ele>2134</ele>
          <time>2026-05-02T09:13:17Z</time>
      </trkpt>
      <trkpt lon="11.5443296432" lat="47.151512146">
          <ele>2130</ele>
          <time>2026-05-02T09:13:31Z</time>
      </trkpt>
      <trkpt lon="11.5444936752" lat="47.1514892578">
          <ele>2130</ele>
          <time>2026-05-02T09:13:42Z</time>
      </trkpt>
      <trkpt lon="11.5446557999" lat="47.1514549255">
          <ele>2128</ele>
          <time>2026-05-02T09:13:46Z</time>
      </trkpt>
      <trkpt lon="11.5448131561" lat="47.1514396667">
          <ele>2126</ele>
          <time>2026-05-02T09:13:50Z</time>
      </trkpt>
      <trkpt lon="11.5449867249" lat="47.1514129639">
          <ele>2123</ele>
          <time>2026-05-02T09:13:54Z</time>
      </trkpt>
      <trkpt lon="11.5451383591" lat="47.1514053345">
          <ele>2117</ele>
          <time>2026-05-02T09:13:58Z</time>
      </trkpt>
      <trkpt lon="11.5452823639" lat="47.1514015198">
          <ele>2112</ele>
          <time>2026-05-02T09:14:04Z</time>
      </trkpt>
      <trkpt lon="11.5454530716" lat="47.1514053345">
          <ele>2110</ele>
          <time>2026-05-02T09:14:08Z</time>
      </trkpt>
      <trkpt lon="11.5455942154" lat="47.1514282227">
          <ele>2106</ele>
          <time>2026-05-02T09:14:11Z</time>
      </trkpt>
      <trkpt lon="11.5457334518" lat="47.1514434814">
          <ele>2100</ele>
          <time>2026-05-02T09:14:20Z</time>
      </trkpt>
      <trkpt lon="11.5459089279" lat="47.1514663696">
          <ele>2098</ele>
          <time>2026-05-02T09:14:24Z</time>
      </trkpt>
      <trkpt lon="11.5461006165" lat="47.1515045166">
          <ele>2097</ele>
          <time>2026-05-02T09:14:26Z</time>
      </trkpt>
      <trkpt lon="11.5462093353" lat="47.1515350342">
          <ele>2090</ele>
          <time>2026-05-02T09:15:12Z</time>
      </trkpt>
      <trkpt lon="11.5463457108" lat="47.1515884399">
          <ele>2090</ele>
          <time>2026-05-02T09:16:31Z</time>
      </trkpt>
      <trkpt lon="11.5462226868" lat="47.1515350342">
          <ele>2090</ele>
          <time>2026-05-02T09:16:54Z</time>
      </trkpt>
      <trkpt lon="11.5463380814" lat="47.1515922546">
          <ele>2087</ele>
          <time>2026-05-02T09:17:22Z</time>
      </trkpt>
      <trkpt lon="11.546500206" lat="47.1516189575">
          <ele>2086</ele>
          <time>2026-05-02T09:17:40Z</time>
      </trkpt>
      <trkpt lon="11.5466327667" lat="47.1516532898">
          <ele>2082</ele>
          <time>2026-05-02T09:17:45Z</time>
      </trkpt>
      <trkpt lon="11.5467500687" lat="47.151725769">
          <ele>2077</ele>
          <time>2026-05-02T09:17:51Z</time>
      </trkpt>
      <trkpt lon="11.5468864441" lat="47.1517486572">
          <ele>2074</ele>
          <time>2026-05-02T09:17:59Z</time>
      </trkpt>
      <trkpt lon="11.5469341278" lat="47.1518440247">
          <ele>2070</ele>
          <time>2026-05-02T09:18:04Z</time>
      </trkpt>
      <trkpt lon="11.5470266342" lat="47.1517524719">
          <ele>2068</ele>
          <time>2026-05-02T09:18:30Z</time>
      </trkpt>
      <trkpt lon="11.5470333099" lat="47.1516227722">
          <ele>2067</ele>
          <time>2026-05-02T09:18:34Z</time>
      </trkpt>
      <trkpt lon="11.5469942093" lat="47.1515235901">
          <ele>2066</ele>
          <time>2026-05-02T09:18:37Z</time>
      </trkpt>
      <trkpt lon="11.5469608307" lat="47.1513977051">
          <ele>2064</ele>
          <time>2026-05-02T09:18:41Z</time>
      </trkpt>
      <trkpt lon="11.5469408035" lat="47.1512870789">
          <ele>2064</ele>
          <time>2026-05-02T09:18:45Z</time>
      </trkpt>
      <trkpt lon="11.5469245911" lat="47.1511611938">
          <ele>2063</ele>
          <time>2026-05-02T09:18:49Z</time>
      </trkpt>
      <trkpt lon="11.5469207764" lat="47.1510467529">
          <ele>2062</ele>
          <time>2026-05-02T09:18:53Z</time>
      </trkpt>
      <trkpt lon="11.5469465256" lat="47.1509399414">
          <ele>2061</ele>
          <time>2026-05-02T09:18:57Z</time>
      </trkpt>
      <trkpt lon="11.5470342636" lat="47.1508178711">
          <ele>2059</ele>
          <time>2026-05-02T09:19:42Z</time>
      </trkpt>
      <trkpt lon="11.5470247269" lat="47.1507148743">
          <ele>2059</ele>
          <time>2026-05-02T09:19:46Z</time>
      </trkpt>
      <trkpt lon="11.546998024" lat="47.1506118774">
          <ele>2056</ele>
          <time>2026-05-02T09:19:51Z</time>
      </trkpt>
      <trkpt lon="11.5469312668" lat="47.1505050659">
          <ele>2053</ele>
          <time>2026-05-02T09:19:56Z</time>
      </trkpt>
      <trkpt lon="11.5469312668" lat="47.1504096985">
          <ele>2050</ele>
          <time>2026-05-02T09:20:00Z</time>
      </trkpt>
      <trkpt lon="11.5469179153" lat="47.1503143311">
          <ele>2047</ele>
          <time>2026-05-02T09:20:05Z</time>
      </trkpt>
      <trkpt lon="11.5469207764" lat="47.1501960754">
          <ele>2044</ele>
          <time>2026-05-02T09:20:10Z</time>
      </trkpt>
      <trkpt lon="11.5468912125" lat="47.150100708">
          <ele>2042</ele>
          <time>2026-05-02T09:20:13Z</time>
      </trkpt>
      <trkpt lon="11.5468482971" lat="47.1500015259">
          <ele>2040</ele>
          <time>2026-05-02T09:20:17Z</time>
      </trkpt>
      <trkpt lon="11.5469274521" lat="47.1499404907">
          <ele>2033</ele>
          <time>2026-05-02T09:21:36Z</time>
      </trkpt>
      <trkpt lon="11.5471124649" lat="47.1499557495">
          <ele>2031</ele>
          <time>2026-05-02T09:22:39Z</time>
      </trkpt>
      <trkpt lon="11.5472745895" lat="47.15001297">
          <ele>2030</ele>
          <time>2026-05-02T09:22:42Z</time>
      </trkpt>
      <trkpt lon="11.5474176407" lat="47.1500511169">
          <ele>2027</ele>
          <time>2026-05-02T09:22:46Z</time>
      </trkpt>
      <trkpt lon="11.5475530624" lat="47.1500968933">
          <ele>2023</ele>
          <time>2026-05-02T09:22:52Z</time>
      </trkpt>
      <trkpt lon="11.5476760864" lat="47.1501274109">
          <ele>2018</ele>
          <time>2026-05-02T09:23:00Z</time>
      </trkpt>
      <trkpt lon="11.5477933884" lat="47.1501808167">
          <ele>2014</ele>
          <time>2026-05-02T09:23:06Z</time>
      </trkpt>
      <trkpt lon="11.5478658676" lat="47.1500778198">
          <ele>2010</ele>
          <time>2026-05-02T09:23:12Z</time>
      </trkpt>
      <trkpt lon="11.5479269028" lat="47.1500015259">
          <ele>2004</ele>
          <time>2026-05-02T09:23:21Z</time>
      </trkpt>
      <trkpt lon="11.5479078293" lat="47.1498947144">
          <ele>2004</ele>
          <time>2026-05-02T09:23:32Z</time>
      </trkpt>
      <trkpt lon="11.5478610992" lat="47.1497879028">
          <ele>2003</ele>
          <time>2026-05-02T09:23:35Z</time>
      </trkpt>
      <trkpt lon="11.5478248596" lat="47.1496810913">
          <ele>2000</ele>
          <time>2026-05-02T09:23:38Z</time>
      </trkpt>
      <trkpt lon="11.5477828979" lat="47.1495780945">
          <ele>1997</ele>
          <time>2026-05-02T09:23:42Z</time>
      </trkpt>
      <trkpt lon="11.5477333069" lat="47.1494636536">
          <ele>1994</ele>
          <time>2026-05-02T09:23:46Z</time>
      </trkpt>
      <trkpt lon="11.5478601456" lat="47.1494178772">
          <ele>1989</ele>
          <time>2026-05-02T09:23:52Z</time>
      </trkpt>
      <trkpt lon="11.5480070114" lat="47.1494369507">
          <ele>1986</ele>
          <time>2026-05-02T09:23:55Z</time>
      </trkpt>
      <trkpt lon="11.548160553" lat="47.1494636536">
          <ele>1983</ele>
          <time>2026-05-02T09:23:58Z</time>
      </trkpt>
      <trkpt lon="11.5482969284" lat="47.1494750977">
          <ele>1979</ele>
          <time>2026-05-02T09:24:01Z</time>
      </trkpt>
      <trkpt lon="11.5484628677" lat="47.149520874">
          <ele>1975</ele>
          <time>2026-05-02T09:24:05Z</time>
      </trkpt>
      <trkpt lon="11.5485935211" lat="47.1495819092">
          <ele>1973</ele>
          <time>2026-05-02T09:24:08Z</time>
      </trkpt>
      <trkpt lon="11.5487041473" lat="47.1495094299">
          <ele>1967</ele>
          <time>2026-05-02T09:24:15Z</time>
      </trkpt>
      <trkpt lon="11.5487155914" lat="47.1494064331">
          <ele>1964</ele>
          <time>2026-05-02T09:24:18Z</time>
      </trkpt>
      <trkpt lon="11.5487298965" lat="47.1492881775">
          <ele>1961</ele>
          <time>2026-05-02T09:24:21Z</time>
      </trkpt>
      <trkpt lon="11.5487346649" lat="47.1491889954">
          <ele>1955</ele>
          <time>2026-05-02T09:24:25Z</time>
      </trkpt>
      <trkpt lon="11.5487194061" lat="47.1490859985">
          <ele>1949</ele>
          <time>2026-05-02T09:24:30Z</time>
      </trkpt>
      <trkpt lon="11.5487098694" lat="47.148979187">
          <ele>1947</ele>
          <time>2026-05-02T09:24:34Z</time>
      </trkpt>
      <trkpt lon="11.54870224" lat="47.1488952637">
          <ele>1941</ele>
          <time>2026-05-02T09:24:40Z</time>
      </trkpt>
      <trkpt lon="11.5487527847" lat="47.1487770081">
          <ele>1938</ele>
          <time>2026-05-02T09:24:45Z</time>
      </trkpt>
      <trkpt lon="11.5487260818" lat="47.1486740112">
          <ele>1936</ele>
          <time>2026-05-02T09:24:48Z</time>
      </trkpt>
      <trkpt lon="11.548833847" lat="47.1486053467">
          <ele>1932</ele>
          <time>2026-05-02T09:24:53Z</time>
      </trkpt>
      <trkpt lon="11.5490074158" lat="47.1485595703">
          <ele>1928</ele>
          <time>2026-05-02T09:24:57Z</time>
      </trkpt>
      <trkpt lon="11.5491542816" lat="47.1485710144">
          <ele>1923</ele>
          <time>2026-05-02T09:25:01Z</time>
      </trkpt>
      <trkpt lon="11.5493106842" lat="47.1486053467">
          <ele>1921</ele>
          <time>2026-05-02T09:25:04Z</time>
      </trkpt>
      <trkpt lon="11.549454689" lat="47.1485977173">
          <ele>1917</ele>
          <time>2026-05-02T09:25:07Z</time>
      </trkpt>
      <trkpt lon="11.5495004654" lat="47.1485824585">
          <ele>1906</ele>
          <time>2026-05-02T09:25:17Z</time>
      </trkpt>
      <trkpt lon="11.5495071411" lat="47.1484680176">
          <ele>1905</ele>
          <time>2026-05-02T09:25:28Z</time>
      </trkpt>
      <trkpt lon="11.5495023727" lat="47.1483535767">
          <ele>1903</ele>
          <time>2026-05-02T09:25:31Z</time>
      </trkpt>
      <trkpt lon="11.5495920181" lat="47.1482963562">
          <ele>1897</ele>
          <time>2026-05-02T09:25:35Z</time>
      </trkpt>
      <trkpt lon="11.5497465134" lat="47.1483001709">
          <ele>1894</ele>
          <time>2026-05-02T09:25:38Z</time>
      </trkpt>
      <trkpt lon="11.5499391556" lat="47.1483192444">
          <ele>1891</ele>
          <time>2026-05-02T09:25:42Z</time>
      </trkpt>
      <trkpt lon="11.5500955582" lat="47.1483535767">
          <ele>1889</ele>
          <time>2026-05-02T09:25:45Z</time>
      </trkpt>
      <trkpt lon="11.5502529144" lat="47.1484260559">
          <ele>1887</ele>
          <time>2026-05-02T09:25:48Z</time>
      </trkpt>
      <trkpt lon="11.5504045486" lat="47.1485061646">
          <ele>1884</ele>
          <time>2026-05-02T09:25:51Z</time>
      </trkpt>
      <trkpt lon="11.5505657196" lat="47.1485595703">
          <ele>1879</ele>
          <time>2026-05-02T09:25:54Z</time>
      </trkpt>
      <trkpt lon="11.5506973267" lat="47.1486091614">
          <ele>1872</ele>
          <time>2026-05-02T09:25:58Z</time>
      </trkpt>
      <trkpt lon="11.550822258" lat="47.1486778259">
          <ele>1866</ele>
          <time>2026-05-02T09:26:03Z</time>
      </trkpt>
      <trkpt lon="11.5509500504" lat="47.1486244202">
          <ele>1861</ele>
          <time>2026-05-02T09:26:08Z</time>
      </trkpt>
      <trkpt lon="11.5510673523" lat="47.1486091614">
          <ele>1854</ele>
          <time>2026-05-02T09:26:16Z</time>
      </trkpt>
      <trkpt lon="11.5511751175" lat="47.1485290527">
          <ele>1851</ele>
          <time>2026-05-02T09:26:20Z</time>
      </trkpt>
      <trkpt lon="11.5512533188" lat="47.1484260559">
          <ele>1850</ele>
          <time>2026-05-02T09:26:23Z</time>
      </trkpt>
      <trkpt lon="11.5512886047" lat="47.1483001709">
          <ele>1846</ele>
          <time>2026-05-02T09:26:26Z</time>
      </trkpt>
      <trkpt lon="11.5513343811" lat="47.1482162476">
          <ele>1841</ele>
          <time>2026-05-02T09:26:29Z</time>
      </trkpt>
      <trkpt lon="11.5515136719" lat="47.1482467651">
          <ele>1836</ele>
          <time>2026-05-02T09:26:33Z</time>
      </trkpt>
      <trkpt lon="11.5516586304" lat="47.1482849121">
          <ele>1833</ele>
          <time>2026-05-02T09:26:35Z</time>
      </trkpt>
      <trkpt lon="11.5517816544" lat="47.1483306885">
          <ele>1830</ele>
          <time>2026-05-02T09:26:37Z</time>
      </trkpt>
      <trkpt lon="11.5518941879" lat="47.1484413147">
          <ele>1825</ele>
          <time>2026-05-02T09:26:40Z</time>
      </trkpt>
      <trkpt lon="11.5520410538" lat="47.1484909058">
          <ele>1821</ele>
          <time>2026-05-02T09:26:43Z</time>
      </trkpt>
      <trkpt lon="11.5522279739" lat="47.1484794617">
          <ele>1816</ele>
          <time>2026-05-02T09:26:46Z</time>
      </trkpt>
      <trkpt lon="11.5523719788" lat="47.1485176086">
          <ele>1812</ele>
          <time>2026-05-02T09:26:49Z</time>
      </trkpt>
      <trkpt lon="11.5524091721" lat="47.1486282349">
          <ele>1808</ele>
          <time>2026-05-02T09:26:53Z</time>
      </trkpt>
      <trkpt lon="11.5525817871" lat="47.1485862732">
          <ele>1805</ele>
          <time>2026-05-02T09:26:57Z</time>
      </trkpt>
      <trkpt lon="11.5527505875" lat="47.1486091614">
          <ele>1802</ele>
          <time>2026-05-02T09:27:03Z</time>
      </trkpt>
      <trkpt lon="11.5528812408" lat="47.1485404968">
          <ele>1801</ele>
          <time>2026-05-02T09:27:08Z</time>
      </trkpt>
      <trkpt lon="11.5530090332" lat="47.1484527588">
          <ele>1799</ele>
          <time>2026-05-02T09:27:12Z</time>
      </trkpt>
      <trkpt lon="11.5530843735" lat="47.1483650208">
          <ele>1797</ele>
          <time>2026-05-02T09:27:15Z</time>
      </trkpt>
      <trkpt lon="11.5531053543" lat="47.1482467651">
          <ele>1794</ele>
          <time>2026-05-02T09:27:18Z</time>
      </trkpt>
      <trkpt lon="11.5531978607" lat="47.1481361389">
          <ele>1791</ele>
          <time>2026-05-02T09:27:21Z</time>
      </trkpt>
      <trkpt lon="11.5532398224" lat="47.1480369568">
          <ele>1785</ele>
          <time>2026-05-02T09:27:26Z</time>
      </trkpt>
      <trkpt lon="11.5532979965" lat="47.1481704712">
          <ele>1779</ele>
          <time>2026-05-02T09:28:11Z</time>
      </trkpt>
      <trkpt lon="11.5534467697" lat="47.1482048035">
          <ele>1765</ele>
          <time>2026-05-02T09:29:08Z</time>
      </trkpt>
      <trkpt lon="11.5535774231" lat="47.1481590271">
          <ele>1765</ele>
          <time>2026-05-02T09:29:34Z</time>
      </trkpt>
      <trkpt lon="11.5536766052" lat="47.1480865479">
          <ele>1763</ele>
          <time>2026-05-02T09:29:56Z</time>
      </trkpt>
      <trkpt lon="11.5536994934" lat="47.1479873657">
          <ele>1760</ele>
          <time>2026-05-02T09:30:13Z</time>
      </trkpt>
      <trkpt lon="11.5536642075" lat="47.1480560303">
          <ele>1752</ele>
          <time>2026-05-02T09:31:14Z</time>
      </trkpt>
      <trkpt lon="11.5537881851" lat="47.1480140686">
          <ele>1747</ele>
          <time>2026-05-02T09:32:09Z</time>
      </trkpt>
      <trkpt lon="11.5539093018" lat="47.1479606628">
          <ele>1743</ele>
          <time>2026-05-02T09:32:24Z</time>
      </trkpt>
      <trkpt lon="11.5540485382" lat="47.1479530334">
          <ele>1739</ele>
          <time>2026-05-02T09:32:41Z</time>
      </trkpt>
      <trkpt lon="11.5540304184" lat="47.1480293274">
          <ele>1732</ele>
          <time>2026-05-02T09:33:20Z</time>
      </trkpt>
      <trkpt lon="11.5539770126" lat="47.1481056213">
          <ele>1738</ele>
          <time>2026-05-02T09:33:36Z</time>
      </trkpt>
      <trkpt lon="11.5541353226" lat="47.1480789185">
          <ele>1738</ele>
          <time>2026-05-02T09:34:13Z</time>
      </trkpt>
      <trkpt lon="11.5542888641" lat="47.1480255127">
          <ele>1736</ele>
          <time>2026-05-02T09:34:17Z</time>
      </trkpt>
      <trkpt lon="11.554485321" lat="47.1480522156">
          <ele>1732</ele>
          <time>2026-05-02T09:34:20Z</time>
      </trkpt>
      <trkpt lon="11.5546503067" lat="47.1480674744">
          <ele>1729</ele>
          <time>2026-05-02T09:34:23Z</time>
      </trkpt>
      <trkpt lon="11.5548095703" lat="47.1480522156">
          <ele>1725</ele>
          <time>2026-05-02T09:34:26Z</time>
      </trkpt>
      <trkpt lon="11.5549945831" lat="47.1480140686">
          <ele>1722</ele>
          <time>2026-05-02T09:34:29Z</time>
      </trkpt>
      <trkpt lon="11.5551843643" lat="47.1479797363">
          <ele>1718</ele>
          <time>2026-05-02T09:34:32Z</time>
      </trkpt>
      <trkpt lon="11.5553655624" lat="47.1479682922">
          <ele>1714</ele>
          <time>2026-05-02T09:34:36Z</time>
      </trkpt>
      <trkpt lon="11.5555038452" lat="47.1479454041">
          <ele>1710</ele>
          <time>2026-05-02T09:34:42Z</time>
      </trkpt>
      <trkpt lon="11.5555782318" lat="47.1479072571">
          <ele>1700</ele>
          <time>2026-05-02T09:35:28Z</time>
      </trkpt>
      <trkpt lon="11.5556459427" lat="47.147895813">
          <ele>1690</ele>
          <time>2026-05-02T09:35:46Z</time>
      </trkpt>
      <trkpt lon="11.5557594299" lat="47.1478614807">
          <ele>1683</ele>
          <time>2026-05-02T09:36:09Z</time>
      </trkpt>
      <trkpt lon="11.555896759" lat="47.1478996277">
          <ele>1678</ele>
          <time>2026-05-02T09:36:26Z</time>
      </trkpt>
      <trkpt lon="11.5559844971" lat="47.1479797363">
          <ele>1675</ele>
          <time>2026-05-02T09:36:34Z</time>
      </trkpt>
      <trkpt lon="11.5561561584" lat="47.1479988098">
          <ele>1673</ele>
          <time>2026-05-02T09:36:42Z</time>
      </trkpt>
      <trkpt lon="11.5562791824" lat="47.1479530334">
          <ele>1669</ele>
          <time>2026-05-02T09:36:47Z</time>
      </trkpt>
      <trkpt lon="11.5564069748" lat="47.1479301453">
          <ele>1663</ele>
          <time>2026-05-02T09:36:55Z</time>
      </trkpt>
      <trkpt lon="11.556555748" lat="47.1478691101">
          <ele>1656</ele>
          <time>2026-05-02T09:37:11Z</time>
      </trkpt>
      <trkpt lon="11.5566558838" lat="47.147769928">
          <ele>1655</ele>
          <time>2026-05-02T09:37:14Z</time>
      </trkpt>
      <trkpt lon="11.5567722321" lat="47.1476860046">
          <ele>1652</ele>
          <time>2026-05-02T09:37:18Z</time>
      </trkpt>
      <trkpt lon="11.5568666458" lat="47.1476097107">
          <ele>1649</ele>
          <time>2026-05-02T09:37:22Z</time>
      </trkpt>
      <trkpt lon="11.5568723679" lat="47.1474952698">
          <ele>1644</ele>
          <time>2026-05-02T09:37:27Z</time>
      </trkpt>
      <trkpt lon="11.5568790436" lat="47.1473999023">
          <ele>1639</ele>
          <time>2026-05-02T09:37:32Z</time>
      </trkpt>
      <trkpt lon="11.5568742752" lat="47.1472969055">
          <ele>1636</ele>
          <time>2026-05-02T09:37:36Z</time>
      </trkpt>
      <trkpt lon="11.5569171906" lat="47.1472053528">
          <ele>1633</ele>
          <time>2026-05-02T09:37:39Z</time>
      </trkpt>
      <trkpt lon="11.5569524765" lat="47.1471099854">
          <ele>1629</ele>
          <time>2026-05-02T09:37:43Z</time>
      </trkpt>
      <trkpt lon="11.5569210052" lat="47.1470069885">
          <ele>1625</ele>
          <time>2026-05-02T09:37:47Z</time>
      </trkpt>
      <trkpt lon="11.5568590164" lat="47.1469116211">
          <ele>1623</ele>
          <time>2026-05-02T09:37:51Z</time>
      </trkpt>
      <trkpt lon="11.5568408966" lat="47.1467933655">
          <ele>1621</ele>
          <time>2026-05-02T09:37:55Z</time>
      </trkpt>
      <trkpt lon="11.5568761826" lat="47.146686554">
          <ele>1619</ele>
          <time>2026-05-02T09:37:59Z</time>
      </trkpt>
      <trkpt lon="11.5569581985" lat="47.1465606689">
          <ele>1616</ele>
          <time>2026-05-02T09:38:02Z</time>
      </trkpt>
      <trkpt lon="11.5567979813" lat="47.1464691162">
          <ele>1611</ele>
          <time>2026-05-02T09:38:04Z</time>
      </trkpt>
      <trkpt lon="11.5567321777" lat="47.1463775635">
          <ele>1605</ele>
          <time>2026-05-02T09:38:07Z</time>
      </trkpt>
      <trkpt lon="11.556687355" lat="47.1462554932">
          <ele>1601</ele>
          <time>2026-05-02T09:38:09Z</time>
      </trkpt>
      <trkpt lon="11.5566358566" lat="47.1461715698">
          <ele>1596</ele>
          <time>2026-05-02T09:38:13Z</time>
      </trkpt>
      <trkpt lon="11.5567398071" lat="47.1462516785">
          <ele>1596</ele>
          <time>2026-05-02T09:38:29Z</time>
      </trkpt>
      <trkpt lon="11.556842804" lat="47.1463279724">
          <ele>1597</ele>
          <time>2026-05-02T09:38:36Z</time>
      </trkpt>
      <trkpt lon="11.5568437576" lat="47.1464309692">
          <ele>1598</ele>
          <time>2026-05-02T09:38:43Z</time>
      </trkpt>
      <trkpt lon="11.5568580627" lat="47.1465339661">
          <ele>1597</ele>
          <time>2026-05-02T09:38:49Z</time>
      </trkpt>
      <trkpt lon="11.5569267273" lat="47.1466331482">
          <ele>1597</ele>
          <time>2026-05-02T09:38:55Z</time>
      </trkpt>
      <trkpt lon="11.5569982529" lat="47.1467437744">
          <ele>1594</ele>
          <time>2026-05-02T09:39:01Z</time>
      </trkpt>
      <trkpt lon="11.5570459366" lat="47.1468429565">
          <ele>1593</ele>
          <time>2026-05-02T09:39:05Z</time>
      </trkpt>
      <trkpt lon="11.557103157" lat="47.1469345093">
          <ele>1593</ele>
          <time>2026-05-02T09:39:09Z</time>
      </trkpt>
      <trkpt lon="11.5571575165" lat="47.1470413208">
          <ele>1593</ele>
          <time>2026-05-02T09:39:13Z</time>
      </trkpt>
      <trkpt lon="11.5572290421" lat="47.1471443176">
          <ele>1592</ele>
          <time>2026-05-02T09:39:17Z</time>
      </trkpt>
      <trkpt lon="11.557308197" lat="47.1472473145">
          <ele>1590</ele>
          <time>2026-05-02T09:39:20Z</time>
      </trkpt>
      <trkpt lon="11.5573701859" lat="47.1473464966">
          <ele>1589</ele>
          <time>2026-05-02T09:39:23Z</time>
      </trkpt>
      <trkpt lon="11.5573740005" lat="47.1474533081">
          <ele>1587</ele>
          <time>2026-05-02T09:39:26Z</time>
      </trkpt>
      <trkpt lon="11.5573635101" lat="47.1475791931">
          <ele>1585</ele>
          <time>2026-05-02T09:39:29Z</time>
      </trkpt>
      <trkpt lon="11.5573625565" lat="47.1477165222">
          <ele>1585</ele>
          <time>2026-05-02T09:39:32Z</time>
      </trkpt>
      <trkpt lon="11.5572566986" lat="47.1478157043">
          <ele>1587</ele>
          <time>2026-05-02T09:39:36Z</time>
      </trkpt>
      <trkpt lon="11.5571146011" lat="47.1479072571">
          <ele>1589</ele>
          <time>2026-05-02T09:39:40Z</time>
      </trkpt>
      <trkpt lon="11.5570201874" lat="47.1480102539">
          <ele>1591</ele>
          <time>2026-05-02T09:39:43Z</time>
      </trkpt>
      <trkpt lon="11.5569562912" lat="47.148109436">
          <ele>1592</ele>
          <time>2026-05-02T09:39:46Z</time>
      </trkpt>
      <trkpt lon="11.556883812" lat="47.1482124329">
          <ele>1593</ele>
          <time>2026-05-02T09:39:49Z</time>
      </trkpt>
      <trkpt lon="11.556801796" lat="47.1483154297">
          <ele>1594</ele>
          <time>2026-05-02T09:39:53Z</time>
      </trkpt>
      <trkpt lon="11.5567398071" lat="47.1484298706">
          <ele>1595</ele>
          <time>2026-05-02T09:39:57Z</time>
      </trkpt>
      <trkpt lon="11.5567398071" lat="47.1485557556">
          <ele>1596</ele>
          <time>2026-05-02T09:40:01Z</time>
      </trkpt>
      <trkpt lon="11.5567073822" lat="47.1486778259">
          <ele>1599</ele>
          <time>2026-05-02T09:40:05Z</time>
      </trkpt>
      <trkpt lon="11.5565576553" lat="47.148727417">
          <ele>1603</ele>
          <time>2026-05-02T09:40:09Z</time>
      </trkpt>
      <trkpt lon="11.5564193726" lat="47.1487808228">
          <ele>1608</ele>
          <time>2026-05-02T09:40:13Z</time>
      </trkpt>
      <trkpt lon="11.5562915802" lat="47.1488380432">
          <ele>1612</ele>
          <time>2026-05-02T09:40:17Z</time>
      </trkpt>
      <trkpt lon="11.556142807" lat="47.1488952637">
          <ele>1617</ele>
          <time>2026-05-02T09:40:22Z</time>
      </trkpt>
      <trkpt lon="11.5559825897" lat="47.1489257813">
          <ele>1620</ele>
          <time>2026-05-02T09:40:27Z</time>
      </trkpt>
      <trkpt lon="11.5558538437" lat="47.1489982605">
          <ele>1622</ele>
          <time>2026-05-02T09:40:32Z</time>
      </trkpt>
      <trkpt lon="11.5558309555" lat="47.1491088867">
          <ele>1623</ele>
          <time>2026-05-02T09:40:35Z</time>
      </trkpt>
      <trkpt lon="11.5558700562" lat="47.149230957">
          <ele>1624</ele>
          <time>2026-05-02T09:40:38Z</time>
      </trkpt>
      <trkpt lon="11.5559368134" lat="47.1493301392">
          <ele>1625</ele>
          <time>2026-05-02T09:40:41Z</time>
      </trkpt>
      <trkpt lon="11.5560703278" lat="47.1494140625">
          <ele>1626</ele>
          <time>2026-05-02T09:40:45Z</time>
      </trkpt>
      <trkpt lon="11.5562009811" lat="47.1494598389">
          <ele>1627</ele>
          <time>2026-05-02T09:40:49Z</time>
      </trkpt>
      <trkpt lon="11.5563049316" lat="47.1495475769">
          <ele>1629</ele>
          <time>2026-05-02T09:40:53Z</time>
      </trkpt>
      <trkpt lon="11.556435585" lat="47.1496238708">
          <ele>1631</ele>
          <time>2026-05-02T09:40:57Z</time>
      </trkpt>
      <trkpt lon="11.5565509796" lat="47.1497306824">
          <ele>1632</ele>
          <time>2026-05-02T09:41:01Z</time>
      </trkpt>
      <trkpt lon="11.5566282272" lat="47.1498222351">
          <ele>1632</ele>
          <time>2026-05-02T09:41:04Z</time>
      </trkpt>
      <trkpt lon="11.5567264557" lat="47.1499252319">
          <ele>1631</ele>
          <time>2026-05-02T09:41:07Z</time>
      </trkpt>
      <trkpt lon="11.5568847656" lat="47.1500205994">
          <ele>1631</ele>
          <time>2026-05-02T09:41:10Z</time>
      </trkpt>
      <trkpt lon="11.5569972992" lat="47.1500892639">
          <ele>1631</ele>
          <time>2026-05-02T09:41:12Z</time>
      </trkpt>
      <trkpt lon="11.5571517944" lat="47.1501922607">
          <ele>1631</ele>
          <time>2026-05-02T09:41:15Z</time>
      </trkpt>
      <trkpt lon="11.5572662354" lat="47.1502532959">
          <ele>1632</ele>
          <time>2026-05-02T09:41:17Z</time>
      </trkpt>
      <trkpt lon="11.5574817657" lat="47.1502685547">
          <ele>1633</ele>
          <time>2026-05-02T09:41:20Z</time>
      </trkpt>
      <trkpt lon="11.5577058792" lat="47.1502456665">
          <ele>1633</ele>
          <time>2026-05-02T09:41:23Z</time>
      </trkpt>
      <trkpt lon="11.5578842163" lat="47.1502189636">
          <ele>1633</ele>
          <time>2026-05-02T09:41:25Z</time>
      </trkpt>
      <trkpt lon="11.5580339432" lat="47.1501846313">
          <ele>1632</ele>
          <time>2026-05-02T09:41:27Z</time>
      </trkpt>
      <trkpt lon="11.5582094193" lat="47.1501846313">
          <ele>1632</ele>
          <time>2026-05-02T09:41:29Z</time>
      </trkpt>
      <trkpt lon="11.5583877563" lat="47.1502189636">
          <ele>1632</ele>
          <time>2026-05-02T09:41:31Z</time>
      </trkpt>
      <trkpt lon="11.558552742" lat="47.1502456665">
          <ele>1631</ele>
          <time>2026-05-02T09:41:33Z</time>
      </trkpt>
      <trkpt lon="11.5587787628" lat="47.150188446">
          <ele>1627</ele>
          <time>2026-05-02T09:41:47Z</time>
      </trkpt>
      <trkpt lon="11.55884552" lat="47.1502418518">
          <ele>1618</ele>
          <time>2026-05-02T09:42:10Z</time>
      </trkpt>
      <trkpt lon="11.559015274" lat="47.1502380371">
          <ele>1618</ele>
          <time>2026-05-02T09:42:13Z</time>
      </trkpt>
      <trkpt lon="11.5591564178" lat="47.1501312256">
          <ele>1617</ele>
          <time>2026-05-02T09:42:16Z</time>
      </trkpt>
      <trkpt lon="11.559214592" lat="47.1500320435">
          <ele>1616</ele>
          <time>2026-05-02T09:42:18Z</time>
      </trkpt>
      <trkpt lon="11.5592947006" lat="47.1499214172">
          <ele>1615</ele>
          <time>2026-05-02T09:42:20Z</time>
      </trkpt>
      <trkpt lon="11.559378624" lat="47.1497993469">
          <ele>1614</ele>
          <time>2026-05-02T09:42:23Z</time>
      </trkpt>
      <trkpt lon="11.5593910217" lat="47.1496925354">
          <ele>1613</ele>
          <time>2026-05-02T09:42:25Z</time>
      </trkpt>
      <trkpt lon="11.5593938828" lat="47.1495933533">
          <ele>1612</ele>
          <time>2026-05-02T09:42:27Z</time>
      </trkpt>
      <trkpt lon="11.559425354" lat="47.1494865417">
          <ele>1609</ele>
          <time>2026-05-02T09:42:32Z</time>
      </trkpt>
      <trkpt lon="11.5592899323" lat="47.1493988037">
          <ele>1600</ele>
          <time>2026-05-02T09:43:16Z</time>
      </trkpt>
      <trkpt lon="11.5593242645" lat="47.1492919922">
          <ele>1594</ele>
          <time>2026-05-02T09:43:20Z</time>
      </trkpt>
      <trkpt lon="11.5592975616" lat="47.149105072">
          <ele>1584</ele>
          <time>2026-05-02T09:43:54Z</time>
      </trkpt>
      <trkpt lon="11.5593757629" lat="47.1490402222">
          <ele>1575</ele>
          <time>2026-05-02T09:43:58Z</time>
      </trkpt>
      <trkpt lon="11.5594987869" lat="47.1490211487">
          <ele>1566</ele>
          <time>2026-05-02T09:44:02Z</time>
      </trkpt>
      <trkpt lon="11.5596284866" lat="47.1490020752">
          <ele>1561</ele>
          <time>2026-05-02T09:44:06Z</time>
      </trkpt>
      <trkpt lon="11.5598106384" lat="47.1490020752">
          <ele>1557</ele>
          <time>2026-05-02T09:44:09Z</time>
      </trkpt>
      <trkpt lon="11.5600194931" lat="47.1489219666">
          <ele>1552</ele>
          <time>2026-05-02T09:44:12Z</time>
      </trkpt>
      <trkpt lon="11.5601968765" lat="47.1488647461">
          <ele>1550</ele>
          <time>2026-05-02T09:44:14Z</time>
      </trkpt>
      <trkpt lon="11.5603647232" lat="47.1488189697">
          <ele>1548</ele>
          <time>2026-05-02T09:44:16Z</time>
      </trkpt>
      <trkpt lon="11.5605401993" lat="47.1487579346">
          <ele>1547</ele>
          <time>2026-05-02T09:44:18Z</time>
      </trkpt>
      <trkpt lon="11.5606899261" lat="47.1487045288">
          <ele>1547</ele>
          <time>2026-05-02T09:44:20Z</time>
      </trkpt>
      <trkpt lon="11.560801506" lat="47.1486206055">
          <ele>1546</ele>
          <time>2026-05-02T09:44:23Z</time>
      </trkpt>
      <trkpt lon="11.5607385635" lat="47.1485290527">
          <ele>1544</ele>
          <time>2026-05-02T09:44:26Z</time>
      </trkpt>
      <trkpt lon="11.5606336594" lat="47.1484260559">
          <ele>1542</ele>
          <time>2026-05-02T09:44:29Z</time>
      </trkpt>
      <trkpt lon="11.5605258942" lat="47.1483230591">
          <ele>1540</ele>
          <time>2026-05-02T09:44:32Z</time>
      </trkpt>
      <trkpt lon="11.5604047775" lat="47.1482124329">
          <ele>1538</ele>
          <time>2026-05-02T09:44:35Z</time>
      </trkpt>
      <trkpt lon="11.5602626801" lat="47.1481590271">
          <ele>1536</ele>
          <time>2026-05-02T09:44:37Z</time>
      </trkpt>
      <trkpt lon="11.5600528717" lat="47.1481323242">
          <ele>1535</ele>
          <time>2026-05-02T09:44:39Z</time>
      </trkpt>
      <trkpt lon="11.5599002838" lat="47.1480789185">
          <ele>1533</ele>
          <time>2026-05-02T09:44:41Z</time>
      </trkpt>
      <trkpt lon="11.559835434" lat="47.1480026245">
          <ele>1526</ele>
          <time>2026-05-02T09:44:50Z</time>
      </trkpt>
      <trkpt lon="11.5600357056" lat="47.1479644775">
          <ele>1524</ele>
          <time>2026-05-02T09:44:53Z</time>
      </trkpt>
      <trkpt lon="11.5602302551" lat="47.1479301453">
          <ele>1521</ele>
          <time>2026-05-02T09:44:56Z</time>
      </trkpt>
      <trkpt lon="11.5604219437" lat="47.147895813">
          <ele>1519</ele>
          <time>2026-05-02T09:44:59Z</time>
      </trkpt>
      <trkpt lon="11.5605792999" lat="47.1478919983">
          <ele>1517</ele>
          <time>2026-05-02T09:45:01Z</time>
      </trkpt>
      <trkpt lon="11.5607366562" lat="47.1478385925">
          <ele>1515</ele>
          <time>2026-05-02T09:45:04Z</time>
      </trkpt>
      <trkpt lon="11.5608701706" lat="47.1477813721">
          <ele>1507</ele>
          <time>2026-05-02T09:45:55Z</time>
      </trkpt>
      <trkpt lon="11.5610218048" lat="47.1478004456">
          <ele>1503</ele>
          <time>2026-05-02T09:45:58Z</time>
      </trkpt>
      <trkpt lon="11.5611715317" lat="47.1478271484">
          <ele>1497</ele>
          <time>2026-05-02T09:46:01Z</time>
      </trkpt>
      <trkpt lon="11.5613489151" lat="47.1478462219">
          <ele>1494</ele>
          <time>2026-05-02T09:46:04Z</time>
      </trkpt>
      <trkpt lon="11.5614824295" lat="47.1478996277">
          <ele>1494</ele>
          <time>2026-05-02T09:46:07Z</time>
      </trkpt>
      <trkpt lon="11.5616254807" lat="47.1479568481">
          <ele>1493</ele>
          <time>2026-05-02T09:46:11Z</time>
      </trkpt>
      <trkpt lon="11.5617609024" lat="47.1480140686">
          <ele>1492</ele>
          <time>2026-05-02T09:46:15Z</time>
      </trkpt>
      <trkpt lon="11.5618667603" lat="47.1480827332">
          <ele>1491</ele>
          <time>2026-05-02T09:46:18Z</time>
      </trkpt>
      <trkpt lon="11.5620241165" lat="47.148147583">
          <ele>1491</ele>
          <time>2026-05-02T09:46:22Z</time>
      </trkpt>
      <trkpt lon="11.5621767044" lat="47.1481895447">
          <ele>1490</ele>
          <time>2026-05-02T09:46:25Z</time>
      </trkpt>
      <trkpt lon="11.5623550415" lat="47.1482429504">
          <ele>1490</ele>
          <time>2026-05-02T09:46:29Z</time>
      </trkpt>
      <trkpt lon="11.5625038147" lat="47.1482696533">
          <ele>1491</ele>
          <time>2026-05-02T09:46:33Z</time>
      </trkpt>
      <trkpt lon="11.5626535416" lat="47.1482696533">
          <ele>1491</ele>
          <time>2026-05-02T09:46:37Z</time>
      </trkpt>
      <trkpt lon="11.5627746582" lat="47.1482124329">
          <ele>1492</ele>
          <time>2026-05-02T09:46:39Z</time>
      </trkpt>
      <trkpt lon="11.562869072" lat="47.1481018066">
          <ele>1491</ele>
          <time>2026-05-02T09:46:42Z</time>
      </trkpt>
      <trkpt lon="11.56291008" lat="47.1479682922">
          <ele>1491</ele>
          <time>2026-05-02T09:46:45Z</time>
      </trkpt>
      <trkpt lon="11.5628919601" lat="47.1478538513">
          <ele>1491</ele>
          <time>2026-05-02T09:46:47Z</time>
      </trkpt>
      <trkpt lon="11.5629043579" lat="47.147731781">
          <ele>1491</ele>
          <time>2026-05-02T09:46:50Z</time>
      </trkpt>
      <trkpt lon="11.5628986359" lat="47.1476135254">
          <ele>1490</ele>
          <time>2026-05-02T09:46:52Z</time>
      </trkpt>
      <trkpt lon="11.5628576279" lat="47.147518158">
          <ele>1490</ele>
          <time>2026-05-02T09:46:54Z</time>
      </trkpt>
      <trkpt lon="11.5627145767" lat="47.1474266052">
          <ele>1490</ele>
          <time>2026-05-02T09:46:56Z</time>
      </trkpt>
      <trkpt lon="11.5625190735" lat="47.1473655701">
          <ele>1490</ele>
          <time>2026-05-02T09:46:58Z</time>
      </trkpt>
      <trkpt lon="11.5623178482" lat="47.1473236084">
          <ele>1490</ele>
          <time>2026-05-02T09:47:00Z</time>
      </trkpt>
      <trkpt lon="11.5621232986" lat="47.1472702026">
          <ele>1489</ele>
          <time>2026-05-02T09:47:02Z</time>
      </trkpt>
      <trkpt lon="11.5619688034" lat="47.1472320557">
          <ele>1490</ele>
          <time>2026-05-02T09:47:04Z</time>
      </trkpt>
      <trkpt lon="11.5617866516" lat="47.1472129822">
          <ele>1490</ele>
          <time>2026-05-02T09:47:06Z</time>
      </trkpt>
      <trkpt lon="11.5615854263" lat="47.1471824646">
          <ele>1490</ele>
          <time>2026-05-02T09:47:08Z</time>
      </trkpt>
      <trkpt lon="11.5614080429" lat="47.1471557617">
          <ele>1490</ele>
          <time>2026-05-02T09:47:10Z</time>
      </trkpt>
      <trkpt lon="11.5612363815" lat="47.1470909119">
          <ele>1490</ele>
          <time>2026-05-02T09:47:12Z</time>
      </trkpt>
      <trkpt lon="11.5611276627" lat="47.1469650269">
          <ele>1490</ele>
          <time>2026-05-02T09:47:14Z</time>
      </trkpt>
      <trkpt lon="11.5610466003" lat="47.1468429565">
          <ele>1490</ele>
          <time>2026-05-02T09:47:16Z</time>
      </trkpt>
      <trkpt lon="11.5609579086" lat="47.1467208862">
          <ele>1490</ele>
          <time>2026-05-02T09:47:18Z</time>
      </trkpt>
      <trkpt lon="11.5608758926" lat="47.1466064453">
          <ele>1490</ele>
          <time>2026-05-02T09:47:20Z</time>
      </trkpt>
      <trkpt lon="11.5607395172" lat="47.1464958191">
          <ele>1489</ele>
          <time>2026-05-02T09:47:22Z</time>
      </trkpt>
      <trkpt lon="11.5605869293" lat="47.1464385986">
          <ele>1489</ele>
          <time>2026-05-02T09:47:24Z</time>
      </trkpt>
      <trkpt lon="11.560418129" lat="47.1463813782">
          <ele>1488</ele>
          <time>2026-05-02T09:47:26Z</time>
      </trkpt>
      <trkpt lon="11.5602903366" lat="47.1463012695">
          <ele>1488</ele>
          <time>2026-05-02T09:47:28Z</time>
      </trkpt>
      <trkpt lon="11.5601835251" lat="47.1462287903">
          <ele>1488</ele>
          <time>2026-05-02T09:47:30Z</time>
      </trkpt>
      <trkpt lon="11.5600423813" lat="47.1461639404">
          <ele>1488</ele>
          <time>2026-05-02T09:47:32Z</time>
      </trkpt>
      <trkpt lon="11.5599126816" lat="47.1460838318">
          <ele>1488</ele>
          <time>2026-05-02T09:47:34Z</time>
      </trkpt>
      <trkpt lon="11.5597934723" lat="47.1460189819">
          <ele>1488</ele>
          <time>2026-05-02T09:47:36Z</time>
      </trkpt>
      <trkpt lon="11.5596504211" lat="47.1459388733">
          <ele>1488</ele>
          <time>2026-05-02T09:47:38Z</time>
      </trkpt>
      <trkpt lon="11.5595035553" lat="47.1458816528">
          <ele>1488</ele>
          <time>2026-05-02T09:47:40Z</time>
      </trkpt>
      <trkpt lon="11.559419632" lat="47.1457901001">
          <ele>1487</ele>
          <time>2026-05-02T09:47:42Z</time>
      </trkpt>
      <trkpt lon="11.5593624115" lat="47.1456565857">
          <ele>1487</ele>
          <time>2026-05-02T09:47:45Z</time>
      </trkpt>
      <trkpt lon="11.5592699051" lat="47.1455230713">
          <ele>1486</ele>
          <time>2026-05-02T09:47:48Z</time>
      </trkpt>
      <trkpt lon="11.5591516495" lat="47.145401001">
          <ele>1485</ele>
          <time>2026-05-02T09:47:51Z</time>
      </trkpt>
      <trkpt lon="11.5591402054" lat="47.1452674866">
          <ele>1484</ele>
          <time>2026-05-02T09:47:54Z</time>
      </trkpt>
      <trkpt lon="11.5590400696" lat="47.1451911926">
          <ele>1483</ele>
          <time>2026-05-02T09:47:56Z</time>
      </trkpt>
      <trkpt lon="11.5589380264" lat="47.1450920105">
          <ele>1481</ele>
          <time>2026-05-02T09:47:58Z</time>
      </trkpt>
      <trkpt lon="11.5588197708" lat="47.1450080872">
          <ele>1480</ele>
          <time>2026-05-02T09:48:00Z</time>
      </trkpt>
      <trkpt lon="11.558719635" lat="47.1449356079">
          <ele>1479</ele>
          <time>2026-05-02T09:48:02Z</time>
      </trkpt>
      <trkpt lon="11.5586071014" lat="47.144859314">
          <ele>1479</ele>
          <time>2026-05-02T09:48:04Z</time>
      </trkpt>
      <trkpt lon="11.5584831238" lat="47.1447525024">
          <ele>1478</ele>
          <time>2026-05-02T09:48:07Z</time>
      </trkpt>
      <trkpt lon="11.5583763123" lat="47.144657135">
          <ele>1478</ele>
          <time>2026-05-02T09:48:10Z</time>
      </trkpt>
      <trkpt lon="11.5582923889" lat="47.1445465088">
          <ele>1477</ele>
          <time>2026-05-02T09:48:13Z</time>
      </trkpt>
      <trkpt lon="11.5581979752" lat="47.1444358826">
          <ele>1477</ele>
          <time>2026-05-02T09:48:16Z</time>
      </trkpt>
      <trkpt lon="11.5581321716" lat="47.144317627">
          <ele>1476</ele>
          <time>2026-05-02T09:48:19Z</time>
      </trkpt>
      <trkpt lon="11.5580949783" lat="47.1441917419">
          <ele>1475</ele>
          <time>2026-05-02T09:48:22Z</time>
      </trkpt>
      <trkpt lon="11.5580892563" lat="47.1440658569">
          <ele>1474</ele>
          <time>2026-05-02T09:48:25Z</time>
      </trkpt>
      <trkpt lon="11.5580329895" lat="47.1439476013">
          <ele>1473</ele>
          <time>2026-05-02T09:48:27Z</time>
      </trkpt>
      <trkpt lon="11.557970047" lat="47.1438484192">
          <ele>1473</ele>
          <time>2026-05-02T09:48:29Z</time>
      </trkpt>
      <trkpt lon="11.5579118729" lat="47.1437339783">
          <ele>1472</ele>
          <time>2026-05-02T09:48:31Z</time>
      </trkpt>
      <trkpt lon="11.5578422546" lat="47.1436309814">
          <ele>1471</ele>
          <time>2026-05-02T09:48:33Z</time>
      </trkpt>
      <trkpt lon="11.5577764511" lat="47.1435241699">
          <ele>1470</ele>
          <time>2026-05-02T09:48:35Z</time>
      </trkpt>
      <trkpt lon="11.5576992035" lat="47.1434135437">
          <ele>1470</ele>
          <time>2026-05-02T09:48:37Z</time>
      </trkpt>
      <trkpt lon="11.5576114655" lat="47.1433105469">
          <ele>1470</ele>
          <time>2026-05-02T09:48:39Z</time>
      </trkpt>
      <trkpt lon="11.557510376" lat="47.1431884766">
          <ele>1469</ele>
          <time>2026-05-02T09:48:41Z</time>
      </trkpt>
      <trkpt lon="11.5574016571" lat="47.1430854797">
          <ele>1469</ele>
          <time>2026-05-02T09:48:43Z</time>
      </trkpt>
      <trkpt lon="11.5573005676" lat="47.1429901123">
          <ele>1468</ele>
          <time>2026-05-02T09:48:45Z</time>
      </trkpt>
      <trkpt lon="11.5571727753" lat="47.1428833008">
          <ele>1467</ele>
          <time>2026-05-02T09:48:47Z</time>
      </trkpt>
      <trkpt lon="11.5571203232" lat="47.1427345276">
          <ele>1465</ele>
          <time>2026-05-02T09:48:49Z</time>
      </trkpt>
      <trkpt lon="11.5571079254" lat="47.1425743103">
          <ele>1464</ele>
          <time>2026-05-02T09:48:51Z</time>
      </trkpt>
      <trkpt lon="11.5570402145" lat="47.142414093">
          <ele>1462</ele>
          <time>2026-05-02T09:48:53Z</time>
      </trkpt>
      <trkpt lon="11.5568857193" lat="47.142288208">
          <ele>1461</ele>
          <time>2026-05-02T09:48:55Z</time>
      </trkpt>
      <trkpt lon="11.5567245483" lat="47.1421737671">
          <ele>1460</ele>
          <time>2026-05-02T09:48:57Z</time>
      </trkpt>
      <trkpt lon="11.5565748215" lat="47.1420669556">
          <ele>1459</ele>
          <time>2026-05-02T09:48:59Z</time>
      </trkpt>
      <trkpt lon="11.5564365387" lat="47.141910553">
          <ele>1458</ele>
          <time>2026-05-02T09:49:01Z</time>
      </trkpt>
      <trkpt lon="11.5563421249" lat="47.1418151855">
          <ele>1458</ele>
          <time>2026-05-02T09:49:02Z</time>
      </trkpt>
      <trkpt lon="11.5561857224" lat="47.1416664124">
          <ele>1457</ele>
          <time>2026-05-02T09:49:04Z</time>
      </trkpt>
      <trkpt lon="11.5560312271" lat="47.1415481567">
          <ele>1457</ele>
          <time>2026-05-02T09:49:06Z</time>
      </trkpt>
      <trkpt lon="11.5559215546" lat="47.1414260864">
          <ele>1456</ele>
          <time>2026-05-02T09:49:08Z</time>
      </trkpt>
      <trkpt lon="11.5557670593" lat="47.1412811279">
          <ele>1455</ele>
          <time>2026-05-02T09:49:10Z</time>
      </trkpt>
      <trkpt lon="11.555603981" lat="47.1411323547">
          <ele>1454</ele>
          <time>2026-05-02T09:49:12Z</time>
      </trkpt>
      <trkpt lon="11.5554847717" lat="47.1410102844">
          <ele>1453</ele>
          <time>2026-05-02T09:49:14Z</time>
      </trkpt>
      <trkpt lon="11.5553607941" lat="47.1408653259">
          <ele>1452</ele>
          <time>2026-05-02T09:49:16Z</time>
      </trkpt>
      <trkpt lon="11.5552797318" lat="47.1407775879">
          <ele>1452</ele>
          <time>2026-05-02T09:49:17Z</time>
      </trkpt>
      <trkpt lon="11.5551948547" lat="47.1406822205">
          <ele>1451</ele>
          <time>2026-05-02T09:49:18Z</time>
      </trkpt>
      <trkpt lon="11.5550823212" lat="47.1405334473">
          <ele>1450</ele>
          <time>2026-05-02T09:49:20Z</time>
      </trkpt>
      <trkpt lon="11.5550422668" lat="47.1403579712">
          <ele>1448</ele>
          <time>2026-05-02T09:49:22Z</time>
      </trkpt>
      <trkpt lon="11.5550174713" lat="47.1401977539">
          <ele>1446</ele>
          <time>2026-05-02T09:49:24Z</time>
      </trkpt>
      <trkpt lon="11.5550222397" lat="47.1400718689">
          <ele>1445</ele>
          <time>2026-05-02T09:49:26Z</time>
      </trkpt>
      <trkpt lon="11.554983139" lat="47.1399230957">
          <ele>1443</ele>
          <time>2026-05-02T09:49:29Z</time>
      </trkpt>
      <trkpt lon="11.5549993515" lat="47.1398010254">
          <ele>1441</ele>
          <time>2026-05-02T09:49:31Z</time>
      </trkpt>
      <trkpt lon="11.5549736023" lat="47.1396408081">
          <ele>1440</ele>
          <time>2026-05-02T09:49:33Z</time>
      </trkpt>
      <trkpt lon="11.5549430847" lat="47.1394882202">
          <ele>1439</ele>
          <time>2026-05-02T09:49:35Z</time>
      </trkpt>
      <trkpt lon="11.5548353195" lat="47.139339447">
          <ele>1437</ele>
          <time>2026-05-02T09:49:37Z</time>
      </trkpt>
      <trkpt lon="11.5547237396" lat="47.1392021179">
          <ele>1434</ele>
          <time>2026-05-02T09:49:39Z</time>
      </trkpt>
      <trkpt lon="11.5546550751" lat="47.1391029358">
          <ele>1432</ele>
          <time>2026-05-02T09:49:41Z</time>
      </trkpt>
      <trkpt lon="11.5546655655" lat="47.1389770508">
          <ele>1430</ele>
          <time>2026-05-02T09:49:43Z</time>
      </trkpt>
      <trkpt lon="11.5547418594" lat="47.1388244629">
          <ele>1427</ele>
          <time>2026-05-02T09:49:45Z</time>
      </trkpt>
      <trkpt lon="11.5547800064" lat="47.1386909485">
          <ele>1425</ele>
          <time>2026-05-02T09:49:47Z</time>
      </trkpt>
      <trkpt lon="11.5548343658" lat="47.1385345459">
          <ele>1423</ele>
          <time>2026-05-02T09:49:49Z</time>
      </trkpt>
      <trkpt lon="11.5548324585" lat="47.1383476257">
          <ele>1422</ele>
          <time>2026-05-02T09:49:51Z</time>
      </trkpt>
      <trkpt lon="11.5547924042" lat="47.1382522583">
          <ele>1421</ele>
          <time>2026-05-02T09:49:52Z</time>
      </trkpt>
      <trkpt lon="11.554725647" lat="47.1381530762">
          <ele>1421</ele>
          <time>2026-05-02T09:49:53Z</time>
      </trkpt>
      <trkpt lon="11.5546512604" lat="47.1380615234">
          <ele>1420</ele>
          <time>2026-05-02T09:49:54Z</time>
      </trkpt>
      <trkpt lon="11.5545578003" lat="47.1379585266">
          <ele>1420</ele>
          <time>2026-05-02T09:49:55Z</time>
      </trkpt>
      <trkpt lon="11.5544652939" lat="47.1378669739">
          <ele>1419</ele>
          <time>2026-05-02T09:49:56Z</time>
      </trkpt>
      <trkpt lon="11.5543813705" lat="47.1377716064">
          <ele>1419</ele>
          <time>2026-05-02T09:49:57Z</time>
      </trkpt>
      <trkpt lon="11.55427742" lat="47.1376876831">
          <ele>1418</ele>
          <time>2026-05-02T09:49:58Z</time>
      </trkpt>
      <trkpt lon="11.5541620255" lat="47.1376190186">
          <ele>1418</ele>
          <time>2026-05-02T09:49:59Z</time>
      </trkpt>
      <trkpt lon="11.5540390015" lat="47.1374549866">
          <ele>1416</ele>
          <time>2026-05-02T09:50:01Z</time>
      </trkpt>
      <trkpt lon="11.5539236069" lat="47.1373138428">
          <ele>1414</ele>
          <time>2026-05-02T09:50:03Z</time>
      </trkpt>
      <trkpt lon="11.5537471771" lat="47.1372032166">
          <ele>1413</ele>
          <time>2026-05-02T09:50:05Z</time>
      </trkpt>
      <trkpt lon="11.553524971" lat="47.137096405">
          <ele>1411</ele>
          <time>2026-05-02T09:50:07Z</time>
      </trkpt>
      <trkpt lon="11.5533657074" lat="47.1369476318">
          <ele>1409</ele>
          <time>2026-05-02T09:50:09Z</time>
      </trkpt>
      <trkpt lon="11.5531949997" lat="47.1367950439">
          <ele>1407</ele>
          <time>2026-05-02T09:50:11Z</time>
      </trkpt>
      <trkpt lon="11.5530109406" lat="47.1366615295">
          <ele>1406</ele>
          <time>2026-05-02T09:50:13Z</time>
      </trkpt>
      <trkpt lon="11.5528059006" lat="47.1365432739">
          <ele>1404</ele>
          <time>2026-05-02T09:50:15Z</time>
      </trkpt>
      <trkpt lon="11.5526161194" lat="47.1364479065">
          <ele>1403</ele>
          <time>2026-05-02T09:50:17Z</time>
      </trkpt>
      <trkpt lon="11.5524263382" lat="47.1363677979">
          <ele>1402</ele>
          <time>2026-05-02T09:50:19Z</time>
      </trkpt>
      <trkpt lon="11.5522031784" lat="47.1363067627">
          <ele>1401</ele>
          <time>2026-05-02T09:50:21Z</time>
      </trkpt>
      <trkpt lon="11.5520067215" lat="47.1362380981">
          <ele>1399</ele>
          <time>2026-05-02T09:50:23Z</time>
      </trkpt>
      <trkpt lon="11.5517835617" lat="47.1361541748">
          <ele>1397</ele>
          <time>2026-05-02T09:50:25Z</time>
      </trkpt>
      <trkpt lon="11.5515680313" lat="47.1360664368">
          <ele>1395</ele>
          <time>2026-05-02T09:50:27Z</time>
      </trkpt>
      <trkpt lon="11.5513753891" lat="47.1359672546">
          <ele>1393</ele>
          <time>2026-05-02T09:50:29Z</time>
      </trkpt>
      <trkpt lon="11.5512056351" lat="47.1358604431">
          <ele>1392</ele>
          <time>2026-05-02T09:50:31Z</time>
      </trkpt>
      <trkpt lon="11.5510025024" lat="47.1357688904">
          <ele>1391</ele>
          <time>2026-05-02T09:50:33Z</time>
      </trkpt>
      <trkpt lon="11.5508327484" lat="47.1356811523">
          <ele>1390</ele>
          <time>2026-05-02T09:50:35Z</time>
      </trkpt>
      <trkpt lon="11.5506677628" lat="47.1355934143">
          <ele>1390</ele>
          <time>2026-05-02T09:50:37Z</time>
      </trkpt>
      <trkpt lon="11.550494194" lat="47.1354904175">
          <ele>1389</ele>
          <time>2026-05-02T09:50:39Z</time>
      </trkpt>
      <trkpt lon="11.5502882004" lat="47.1354217529">
          <ele>1388</ele>
          <time>2026-05-02T09:50:41Z</time>
      </trkpt>
      <trkpt lon="11.5500478745" lat="47.1353416443">
          <ele>1387</ele>
          <time>2026-05-02T09:50:43Z</time>
      </trkpt>
      <trkpt lon="11.5498199463" lat="47.135269165">
          <ele>1386</ele>
          <time>2026-05-02T09:50:45Z</time>
      </trkpt>
      <trkpt lon="11.5496377945" lat="47.1352005005">
          <ele>1385</ele>
          <time>2026-05-02T09:50:47Z</time>
      </trkpt>
      <trkpt lon="11.5494565964" lat="47.1351242065">
          <ele>1384</ele>
          <time>2026-05-02T09:50:49Z</time>
      </trkpt>
      <trkpt lon="11.5492668152" lat="47.1350631714">
          <ele>1383</ele>
          <time>2026-05-02T09:50:51Z</time>
      </trkpt>
      <trkpt lon="11.5490579605" lat="47.1350021362">
          <ele>1382</ele>
          <time>2026-05-02T09:50:53Z</time>
      </trkpt>
      <trkpt lon="11.5488643646" lat="47.1349525452">
          <ele>1382</ele>
          <time>2026-05-02T09:50:55Z</time>
      </trkpt>
      <trkpt lon="11.5486860275" lat="47.1348876953">
          <ele>1381</ele>
          <time>2026-05-02T09:50:57Z</time>
      </trkpt>
      <trkpt lon="11.5485305786" lat="47.134803772">
          <ele>1381</ele>
          <time>2026-05-02T09:50:59Z</time>
      </trkpt>
      <trkpt lon="11.5483808517" lat="47.1347351074">
          <ele>1380</ele>
          <time>2026-05-02T09:51:01Z</time>
      </trkpt>
      <trkpt lon="11.5482568741" lat="47.1346435547">
          <ele>1379</ele>
          <time>2026-05-02T09:51:03Z</time>
      </trkpt>
      <trkpt lon="11.5481061935" lat="47.1345672607">
          <ele>1378</ele>
          <time>2026-05-02T09:51:05Z</time>
      </trkpt>
      <trkpt lon="11.5479450226" lat="47.1344909668">
          <ele>1378</ele>
          <time>2026-05-02T09:51:07Z</time>
      </trkpt>
      <trkpt lon="11.5477752686" lat="47.1343994141">
          <ele>1377</ele>
          <time>2026-05-02T09:51:09Z</time>
      </trkpt>
      <trkpt lon="11.5475997925" lat="47.1343460083">
          <ele>1376</ele>
          <time>2026-05-02T09:51:11Z</time>
      </trkpt>
      <trkpt lon="11.5474243164" lat="47.1342735291">
          <ele>1376</ele>
          <time>2026-05-02T09:51:13Z</time>
      </trkpt>
      <trkpt lon="11.5472307205" lat="47.1342086792">
          <ele>1375</ele>
          <time>2026-05-02T09:51:15Z</time>
      </trkpt>
      <trkpt lon="11.5470323563" lat="47.1341323853">
          <ele>1374</ele>
          <time>2026-05-02T09:51:17Z</time>
      </trkpt>
      <trkpt lon="11.546833992" lat="47.1340560913">
          <ele>1374</ele>
          <time>2026-05-02T09:51:19Z</time>
      </trkpt>
      <trkpt lon="11.5466403961" lat="47.1339836121">
          <ele>1373</ele>
          <time>2026-05-02T09:51:21Z</time>
      </trkpt>
      <trkpt lon="11.54646492" lat="47.1339073181">
          <ele>1373</ele>
          <time>2026-05-02T09:51:23Z</time>
      </trkpt>
      <trkpt lon="11.5463418961" lat="47.1338233948">
          <ele>1372</ele>
          <time>2026-05-02T09:51:25Z</time>
      </trkpt>
      <trkpt lon="11.5462093353" lat="47.1337585449">
          <ele>1371</ele>
          <time>2026-05-02T09:51:27Z</time>
      </trkpt>
      <trkpt lon="11.5460672379" lat="47.1337203979">
          <ele>1371</ele>
          <time>2026-05-02T09:51:29Z</time>
      </trkpt>
      <trkpt lon="11.5459260941" lat="47.1336555481">
          <ele>1371</ele>
          <time>2026-05-02T09:51:31Z</time>
      </trkpt>
      <trkpt lon="11.5458784103" lat="47.1335411072">
          <ele>1370</ele>
          <time>2026-05-02T09:51:33Z</time>
      </trkpt>
      <trkpt lon="11.5458555222" lat="47.133430481">
          <ele>1370</ele>
          <time>2026-05-02T09:51:35Z</time>
      </trkpt>
      <trkpt lon="11.5457954407" lat="47.1333198547">
          <ele>1369</ele>
          <time>2026-05-02T09:51:37Z</time>
      </trkpt>
      <trkpt lon="11.5456581116" lat="47.1332130432">
          <ele>1369</ele>
          <time>2026-05-02T09:51:39Z</time>
      </trkpt>
      <trkpt lon="11.5454978943" lat="47.1330947876">
          <ele>1369</ele>
          <time>2026-05-02T09:51:41Z</time>
      </trkpt>
      <trkpt lon="11.5453176498" lat="47.132938385">
          <ele>1368</ele>
          <time>2026-05-02T09:51:43Z</time>
      </trkpt>
      <trkpt lon="11.5452013016" lat="47.1328773499">
          <ele>1368</ele>
          <time>2026-05-02T09:51:44Z</time>
      </trkpt>
      <trkpt lon="11.5450572968" lat="47.1328277588">
          <ele>1368</ele>
          <time>2026-05-02T09:51:45Z</time>
      </trkpt>
      <trkpt lon="11.5448999405" lat="47.132774353">
          <ele>1367</ele>
          <time>2026-05-02T09:51:46Z</time>
      </trkpt>
      <trkpt lon="11.5447463989" lat="47.1327285767">
          <ele>1366</ele>
          <time>2026-05-02T09:51:47Z</time>
      </trkpt>
      <trkpt lon="11.5444526672" lat="47.1326713562">
          <ele>1365</ele>
          <time>2026-05-02T09:51:49Z</time>
      </trkpt>
      <trkpt lon="11.5443000793" lat="47.1326637268">
          <ele>1364</ele>
          <time>2026-05-02T09:51:50Z</time>
      </trkpt>
      <trkpt lon="11.5441455841" lat="47.1326713562">
          <ele>1363</ele>
          <time>2026-05-02T09:51:51Z</time>
      </trkpt>
      <trkpt lon="11.5439863205" lat="47.1326713562">
          <ele>1362</ele>
          <time>2026-05-02T09:51:52Z</time>
      </trkpt>
      <trkpt lon="11.5438270569" lat="47.1326522827">
          <ele>1361</ele>
          <time>2026-05-02T09:51:53Z</time>
      </trkpt>
      <trkpt lon="11.5436697006" lat="47.1325950623">
          <ele>1360</ele>
          <time>2026-05-02T09:51:54Z</time>
      </trkpt>
      <trkpt lon="11.5435295105" lat="47.1325302124">
          <ele>1359</ele>
          <time>2026-05-02T09:51:55Z</time>
      </trkpt>
      <trkpt lon="11.5434112549" lat="47.1324386597">
          <ele>1358</ele>
          <time>2026-05-02T09:51:56Z</time>
      </trkpt>
      <trkpt lon="11.5432920456" lat="47.1323547363">
          <ele>1357</ele>
          <time>2026-05-02T09:51:57Z</time>
      </trkpt>
      <trkpt lon="11.5431909561" lat="47.1322784424">
          <ele>1356</ele>
          <time>2026-05-02T09:51:58Z</time>
      </trkpt>
      <trkpt lon="11.5429944992" lat="47.1321640015">
          <ele>1354</ele>
          <time>2026-05-02T09:52:00Z</time>
      </trkpt>
      <trkpt lon="11.5427474976" lat="47.1320762634">
          <ele>1352</ele>
          <time>2026-05-02T09:52:02Z</time>
      </trkpt>
      <trkpt lon="11.5425081253" lat="47.1319847107">
          <ele>1350</ele>
          <time>2026-05-02T09:52:04Z</time>
      </trkpt>
      <trkpt lon="11.5423774719" lat="47.1319313049">
          <ele>1350</ele>
          <time>2026-05-02T09:52:05Z</time>
      </trkpt>
      <trkpt lon="11.5421161652" lat="47.1318283081">
          <ele>1348</ele>
          <time>2026-05-02T09:52:07Z</time>
      </trkpt>
      <trkpt lon="11.5419816971" lat="47.1317863464">
          <ele>1348</ele>
          <time>2026-05-02T09:52:08Z</time>
      </trkpt>
      <trkpt lon="11.5417118073" lat="47.1317329407">
          <ele>1347</ele>
          <time>2026-05-02T09:52:10Z</time>
      </trkpt>
      <trkpt lon="11.5414390564" lat="47.1317253113">
          <ele>1345</ele>
          <time>2026-05-02T09:52:12Z</time>
      </trkpt>
      <trkpt lon="11.5411586761" lat="47.1317024231">
          <ele>1343</ele>
          <time>2026-05-02T09:52:14Z</time>
      </trkpt>
      <trkpt lon="11.5408945084" lat="47.1316719055">
          <ele>1342</ele>
          <time>2026-05-02T09:52:16Z</time>
      </trkpt>
      <trkpt lon="11.5406732559" lat="47.1316223145">
          <ele>1340</ele>
          <time>2026-05-02T09:52:18Z</time>
      </trkpt>
      <trkpt lon="11.5405578613" lat="47.1315116882">
          <ele>1338</ele>
          <time>2026-05-02T09:52:20Z</time>
      </trkpt>
      <trkpt lon="11.5404987335" lat="47.1313896179">
          <ele>1337</ele>
          <time>2026-05-02T09:52:22Z</time>
      </trkpt>
      <trkpt lon="11.5404367447" lat="47.1312866211">
          <ele>1335</ele>
          <time>2026-05-02T09:52:24Z</time>
      </trkpt>
      <trkpt lon="11.5403614044" lat="47.1311988831">
          <ele>1334</ele>
          <time>2026-05-02T09:52:26Z</time>
      </trkpt>
      <trkpt lon="11.5403862" lat="47.1310844421">
          <ele>1334</ele>
          <time>2026-05-02T09:52:28Z</time>
      </trkpt>
      <trkpt lon="11.5404462814" lat="47.1309623718">
          <ele>1332</ele>
          <time>2026-05-02T09:52:31Z</time>
      </trkpt>
      <trkpt lon="11.5405006409" lat="47.1308174133">
          <ele>1332</ele>
          <time>2026-05-02T09:52:34Z</time>
      </trkpt>
      <trkpt lon="11.5404253006" lat="47.1307106018">
          <ele>1331</ele>
          <time>2026-05-02T09:52:37Z</time>
      </trkpt>
      <trkpt lon="11.5402545929" lat="47.1306877136">
          <ele>1330</ele>
          <time>2026-05-02T09:52:39Z</time>
      </trkpt>
      <trkpt lon="11.5400514603" lat="47.130695343">
          <ele>1330</ele>
          <time>2026-05-02T09:52:41Z</time>
      </trkpt>
      <trkpt lon="11.5398397446" lat="47.1307411194">
          <ele>1329</ele>
          <time>2026-05-02T09:52:43Z</time>
      </trkpt>
      <trkpt lon="11.5395812988" lat="47.1307907104">
          <ele>1328</ele>
          <time>2026-05-02T09:52:45Z</time>
      </trkpt>
      <trkpt lon="11.5393018723" lat="47.1308174133">
          <ele>1327</ele>
          <time>2026-05-02T09:52:47Z</time>
      </trkpt>
      <trkpt lon="11.5390367508" lat="47.1308517456">
          <ele>1325</ele>
          <time>2026-05-02T09:52:49Z</time>
      </trkpt>
      <trkpt lon="11.5388069153" lat="47.1308555603">
          <ele>1323</ele>
          <time>2026-05-02T09:52:51Z</time>
      </trkpt>
      <trkpt lon="11.5386199951" lat="47.1308555603">
          <ele>1320</ele>
          <time>2026-05-02T09:55:04Z</time>
      </trkpt>
   </trkseg>
</trk>
</gpx>
